<?xml version="1.0" encoding="UTF-8" standalone="no" ?>
<gpx xmlns="http://www.topografix.com/GPX/1/1" xmlns:xsi="http://www.w3.org/2001/XMLSchema-instance" xsi:schemaLocation="http://www.topografix.com/GPX/1/1 http://www.topografix.com/GPX/1/1/gpx.xsd" version="1.1" creator="VisuGPX - https://www.visugpx.com">
  <metadata>
    <name>Balade Tregunc vers Concarneau GR34</name>
    <desc><![CDATA[Toujours agréable de randonner sur les sentiers côtiers]]></desc>
  </metadata>
  <trk>
    <name><![CDATA[2018-04-06 12:19:07]]></name>
    <trkseg>
      <trkpt lat="47.83912" lon="-3.89055">
        <ele>23.21</ele>
        <time>2018-04-06T07:24:51Z</time>
      </trkpt>
      <trkpt lat="47.83917" lon="-3.8906">
        <ele>14.56</ele>
        <time>2018-04-06T07:25:10Z</time>
      </trkpt>
      <trkpt lat="47.83928" lon="-3.89067">
        <ele>12.15</ele>
        <time>2018-04-06T07:25:24Z</time>
      </trkpt>
      <trkpt lat="47.83942" lon="-3.89075">
        <ele>8.79</ele>
        <time>2018-04-06T07:25:39Z</time>
      </trkpt>
      <trkpt lat="47.83953" lon="-3.89084">
        <ele>9.75</ele>
        <time>2018-04-06T07:25:49Z</time>
      </trkpt>
      <trkpt lat="47.83955" lon="-3.89086">
        <ele>9.75</ele>
        <time>2018-04-06T07:25:51Z</time>
      </trkpt>
      <trkpt lat="47.83958" lon="-3.8909">
        <ele>10.71</ele>
        <time>2018-04-06T07:25:54Z</time>
      </trkpt>
      <trkpt lat="47.83968" lon="-3.89103">
        <ele>11.19</ele>
        <time>2018-04-06T07:26:04Z</time>
      </trkpt>
      <trkpt lat="47.83972" lon="-3.8911">
        <ele>11.67</ele>
        <time>2018-04-06T07:26:09Z</time>
      </trkpt>
      <trkpt lat="47.83988" lon="-3.89127">
        <ele>12.63</ele>
        <time>2018-04-06T07:26:21Z</time>
      </trkpt>
      <trkpt lat="47.83995" lon="-3.89138">
        <ele>14.08</ele>
        <time>2018-04-06T07:26:28Z</time>
      </trkpt>
      <trkpt lat="47.83999" lon="-3.89141">
        <ele>13.12</ele>
        <time>2018-04-06T07:26:32Z</time>
      </trkpt>
      <trkpt lat="47.84001" lon="-3.89144">
        <ele>12.15</ele>
        <time>2018-04-06T07:26:35Z</time>
      </trkpt>
      <trkpt lat="47.84004" lon="-3.89148">
        <ele>12.15</ele>
        <time>2018-04-06T07:26:39Z</time>
      </trkpt>
      <trkpt lat="47.84005" lon="-3.89149">
        <ele>11.67</ele>
        <time>2018-04-06T07:26:40Z</time>
      </trkpt>
      <trkpt lat="47.84016" lon="-3.89162">
        <ele>13.6</ele>
        <time>2018-04-06T07:26:55Z</time>
      </trkpt>
      <trkpt lat="47.8403" lon="-3.89174">
        <ele>15.04</ele>
        <time>2018-04-06T07:27:06Z</time>
      </trkpt>
      <trkpt lat="47.84045" lon="-3.89184">
        <ele>18.4</ele>
        <time>2018-04-06T07:27:16Z</time>
      </trkpt>
      <trkpt lat="47.84052" lon="-3.89188">
        <ele>20.32</ele>
        <time>2018-04-06T07:27:21Z</time>
      </trkpt>
      <trkpt lat="47.84057" lon="-3.89192">
        <ele>21.29</ele>
        <time>2018-04-06T07:27:25Z</time>
      </trkpt>
      <trkpt lat="47.84066" lon="-3.89196">
        <ele>21.29</ele>
        <time>2018-04-06T07:27:32Z</time>
      </trkpt>
      <trkpt lat="47.84074" lon="-3.89202">
        <ele>22.25</ele>
        <time>2018-04-06T07:27:39Z</time>
      </trkpt>
      <trkpt lat="47.84076" lon="-3.89203">
        <ele>23.21</ele>
        <time>2018-04-06T07:27:40Z</time>
      </trkpt>
      <trkpt lat="47.84082" lon="-3.89208">
        <ele>23.21</ele>
        <time>2018-04-06T07:27:46Z</time>
      </trkpt>
      <trkpt lat="47.84083" lon="-3.8921">
        <ele>22.73</ele>
        <time>2018-04-06T07:27:48Z</time>
      </trkpt>
      <trkpt lat="47.84085" lon="-3.89211">
        <ele>22.25</ele>
        <time>2018-04-06T07:27:50Z</time>
      </trkpt>
      <trkpt lat="47.84088" lon="-3.89215">
        <ele>21.29</ele>
        <time>2018-04-06T07:27:54Z</time>
      </trkpt>
      <trkpt lat="47.84095" lon="-3.89225">
        <ele>18.88</ele>
        <time>2018-04-06T07:28:06Z</time>
      </trkpt>
      <trkpt lat="47.84096" lon="-3.89226">
        <ele>18.4</ele>
        <time>2018-04-06T07:28:07Z</time>
      </trkpt>
      <trkpt lat="47.84097" lon="-3.89228">
        <ele>18.4</ele>
        <time>2018-04-06T07:28:08Z</time>
      </trkpt>
      <trkpt lat="47.84098" lon="-3.89229">
        <ele>18.4</ele>
        <time>2018-04-06T07:28:09Z</time>
      </trkpt>
      <trkpt lat="47.84099" lon="-3.8923">
        <ele>17.92</ele>
        <time>2018-04-06T07:28:10Z</time>
      </trkpt>
      <trkpt lat="47.841" lon="-3.89231">
        <ele>17.92</ele>
        <time>2018-04-06T07:28:11Z</time>
      </trkpt>
      <trkpt lat="47.84113" lon="-3.89246">
        <ele>21.29</ele>
        <time>2018-04-06T07:28:22Z</time>
      </trkpt>
      <trkpt lat="47.84114" lon="-3.89248">
        <ele>21.29</ele>
        <time>2018-04-06T07:28:23Z</time>
      </trkpt>
      <trkpt lat="47.84115" lon="-3.8925">
        <ele>20.81</ele>
        <time>2018-04-06T07:28:24Z</time>
      </trkpt>
      <trkpt lat="47.84116" lon="-3.89252">
        <ele>20.81</ele>
        <time>2018-04-06T07:28:25Z</time>
      </trkpt>
      <trkpt lat="47.84117" lon="-3.89252">
        <ele>20.81</ele>
        <time>2018-04-06T07:28:26Z</time>
      </trkpt>
      <trkpt lat="47.84123" lon="-3.89261">
        <ele>19.84</ele>
        <time>2018-04-06T07:28:33Z</time>
      </trkpt>
      <trkpt lat="47.84124" lon="-3.89263">
        <ele>20.32</ele>
        <time>2018-04-06T07:28:34Z</time>
      </trkpt>
      <trkpt lat="47.84125" lon="-3.89264">
        <ele>20.32</ele>
        <time>2018-04-06T07:28:35Z</time>
      </trkpt>
      <trkpt lat="47.84126" lon="-3.89265">
        <ele>20.32</ele>
        <time>2018-04-06T07:28:36Z</time>
      </trkpt>
      <trkpt lat="47.84127" lon="-3.89267">
        <ele>19.84</ele>
        <time>2018-04-06T07:28:37Z</time>
      </trkpt>
      <trkpt lat="47.84128" lon="-3.89268">
        <ele>19.84</ele>
        <time>2018-04-06T07:28:38Z</time>
      </trkpt>
      <trkpt lat="47.84128" lon="-3.8927">
        <ele>19.84</ele>
        <time>2018-04-06T07:28:39Z</time>
      </trkpt>
      <trkpt lat="47.84129" lon="-3.89272">
        <ele>19.36</ele>
        <time>2018-04-06T07:28:40Z</time>
      </trkpt>
      <trkpt lat="47.84129" lon="-3.89273">
        <ele>18.88</ele>
        <time>2018-04-06T07:28:41Z</time>
      </trkpt>
      <trkpt lat="47.84133" lon="-3.89286">
        <ele>16</ele>
        <time>2018-04-06T07:28:50Z</time>
      </trkpt>
      <trkpt lat="47.84137" lon="-3.89293">
        <ele>14.08</ele>
        <time>2018-04-06T07:28:56Z</time>
      </trkpt>
      <trkpt lat="47.84137" lon="-3.89294">
        <ele>13.12</ele>
        <time>2018-04-06T07:28:57Z</time>
      </trkpt>
      <trkpt lat="47.84137" lon="-3.89296">
        <ele>13.12</ele>
        <time>2018-04-06T07:28:58Z</time>
      </trkpt>
      <trkpt lat="47.84138" lon="-3.89297">
        <ele>13.12</ele>
        <time>2018-04-06T07:28:59Z</time>
      </trkpt>
      <trkpt lat="47.84139" lon="-3.89298">
        <ele>12.63</ele>
        <time>2018-04-06T07:29:00Z</time>
      </trkpt>
      <trkpt lat="47.84139" lon="-3.893">
        <ele>12.15</ele>
        <time>2018-04-06T07:29:01Z</time>
      </trkpt>
      <trkpt lat="47.8414" lon="-3.89301">
        <ele>11.67</ele>
        <time>2018-04-06T07:29:02Z</time>
      </trkpt>
      <trkpt lat="47.8414" lon="-3.89303">
        <ele>11.67</ele>
        <time>2018-04-06T07:29:03Z</time>
      </trkpt>
      <trkpt lat="47.8414" lon="-3.89304">
        <ele>11.19</ele>
        <time>2018-04-06T07:29:04Z</time>
      </trkpt>
      <trkpt lat="47.8414" lon="-3.89306">
        <ele>11.19</ele>
        <time>2018-04-06T07:29:05Z</time>
      </trkpt>
      <trkpt lat="47.84141" lon="-3.89307">
        <ele>11.19</ele>
        <time>2018-04-06T07:29:06Z</time>
      </trkpt>
      <trkpt lat="47.84146" lon="-3.8932">
        <ele>11.19</ele>
        <time>2018-04-06T07:29:14Z</time>
      </trkpt>
      <trkpt lat="47.84147" lon="-3.89325">
        <ele>10.71</ele>
        <time>2018-04-06T07:29:18Z</time>
      </trkpt>
      <trkpt lat="47.84148" lon="-3.89326">
        <ele>10.71</ele>
        <time>2018-04-06T07:29:19Z</time>
      </trkpt>
      <trkpt lat="47.84148" lon="-3.89328">
        <ele>10.71</ele>
        <time>2018-04-06T07:29:20Z</time>
      </trkpt>
      <trkpt lat="47.84149" lon="-3.89329">
        <ele>10.71</ele>
        <time>2018-04-06T07:29:21Z</time>
      </trkpt>
      <trkpt lat="47.84149" lon="-3.89333">
        <ele>10.23</ele>
        <time>2018-04-06T07:29:24Z</time>
      </trkpt>
      <trkpt lat="47.84148" lon="-3.89335">
        <ele>9.75</ele>
        <time>2018-04-06T07:29:25Z</time>
      </trkpt>
      <trkpt lat="47.84147" lon="-3.89337">
        <ele>9.75</ele>
        <time>2018-04-06T07:29:26Z</time>
      </trkpt>
      <trkpt lat="47.84147" lon="-3.89338">
        <ele>9.75</ele>
        <time>2018-04-06T07:29:27Z</time>
      </trkpt>
      <trkpt lat="47.84146" lon="-3.8934">
        <ele>9.75</ele>
        <time>2018-04-06T07:29:28Z</time>
      </trkpt>
      <trkpt lat="47.84143" lon="-3.89348">
        <ele>9.27</ele>
        <time>2018-04-06T07:29:33Z</time>
      </trkpt>
      <trkpt lat="47.84143" lon="-3.8935">
        <ele>8.79</ele>
        <time>2018-04-06T07:29:34Z</time>
      </trkpt>
      <trkpt lat="47.84143" lon="-3.89353">
        <ele>8.79</ele>
        <time>2018-04-06T07:29:36Z</time>
      </trkpt>
      <trkpt lat="47.84144" lon="-3.89355">
        <ele>8.79</ele>
        <time>2018-04-06T07:29:37Z</time>
      </trkpt>
      <trkpt lat="47.84145" lon="-3.89357">
        <ele>8.79</ele>
        <time>2018-04-06T07:29:38Z</time>
      </trkpt>
      <trkpt lat="47.84146" lon="-3.89357">
        <ele>8.79</ele>
        <time>2018-04-06T07:29:39Z</time>
      </trkpt>
      <trkpt lat="47.84146" lon="-3.89358">
        <ele>8.79</ele>
        <time>2018-04-06T07:29:40Z</time>
      </trkpt>
      <trkpt lat="47.84147" lon="-3.8936">
        <ele>8.31</ele>
        <time>2018-04-06T07:29:41Z</time>
      </trkpt>
      <trkpt lat="47.84148" lon="-3.89361">
        <ele>8.31</ele>
        <time>2018-04-06T07:29:42Z</time>
      </trkpt>
      <trkpt lat="47.84149" lon="-3.89361">
        <ele>8.31</ele>
        <time>2018-04-06T07:29:43Z</time>
      </trkpt>
      <trkpt lat="47.84152" lon="-3.89362">
        <ele>6.39</ele>
        <time>2018-04-06T07:29:47Z</time>
      </trkpt>
      <trkpt lat="47.84154" lon="-3.89363">
        <ele>5.91</ele>
        <time>2018-04-06T07:29:49Z</time>
      </trkpt>
      <trkpt lat="47.84155" lon="-3.89365">
        <ele>5.91</ele>
        <time>2018-04-06T07:29:50Z</time>
      </trkpt>
      <trkpt lat="47.84156" lon="-3.89366">
        <ele>5.42</ele>
        <time>2018-04-06T07:29:51Z</time>
      </trkpt>
      <trkpt lat="47.84157" lon="-3.89367">
        <ele>5.42</ele>
        <time>2018-04-06T07:29:52Z</time>
      </trkpt>
      <trkpt lat="47.84157" lon="-3.89367">
        <ele>5.42</ele>
        <time>2018-04-06T07:29:54Z</time>
      </trkpt>
      <trkpt lat="47.84156" lon="-3.89362">
        <ele>6.87</ele>
        <time>2018-04-06T07:29:58Z</time>
      </trkpt>
      <trkpt lat="47.84157" lon="-3.8936">
        <ele>7.35</ele>
        <time>2018-04-06T07:29:59Z</time>
      </trkpt>
      <trkpt lat="47.84162" lon="-3.89355">
        <ele>7.35</ele>
        <time>2018-04-06T07:30:03Z</time>
      </trkpt>
      <trkpt lat="47.84163" lon="-3.89354">
        <ele>7.35</ele>
        <time>2018-04-06T07:30:04Z</time>
      </trkpt>
      <trkpt lat="47.84169" lon="-3.89358">
        <ele>4.46</ele>
        <time>2018-04-06T07:30:16Z</time>
      </trkpt>
      <trkpt lat="47.8417" lon="-3.89358">
        <ele>4.94</ele>
        <time>2018-04-06T07:30:19Z</time>
      </trkpt>
      <trkpt lat="47.84173" lon="-3.8936">
        <ele>4.94</ele>
        <time>2018-04-06T07:30:22Z</time>
      </trkpt>
      <trkpt lat="47.84174" lon="-3.89361">
        <ele>5.42</ele>
        <time>2018-04-06T07:30:23Z</time>
      </trkpt>
      <trkpt lat="47.84188" lon="-3.89367">
        <ele>2.06</ele>
        <time>2018-04-06T07:30:35Z</time>
      </trkpt>
      <trkpt lat="47.84195" lon="-3.89374">
        <ele>-0.82</ele>
        <time>2018-04-06T07:30:42Z</time>
      </trkpt>
      <trkpt lat="47.84196" lon="-3.89374">
        <ele>-1.3</ele>
        <time>2018-04-06T07:30:43Z</time>
      </trkpt>
      <trkpt lat="47.84202" lon="-3.89378">
        <ele>-1.79</ele>
        <time>2018-04-06T07:30:48Z</time>
      </trkpt>
      <trkpt lat="47.84204" lon="-3.89379">
        <ele>-1.79</ele>
        <time>2018-04-06T07:30:49Z</time>
      </trkpt>
      <trkpt lat="47.84205" lon="-3.8938">
        <ele>-1.79</ele>
        <time>2018-04-06T07:30:50Z</time>
      </trkpt>
      <trkpt lat="47.84206" lon="-3.89381">
        <ele>-1.79</ele>
        <time>2018-04-06T07:30:51Z</time>
      </trkpt>
      <trkpt lat="47.84207" lon="-3.89382">
        <ele>-1.79</ele>
        <time>2018-04-06T07:30:52Z</time>
      </trkpt>
      <trkpt lat="47.84208" lon="-3.89382">
        <ele>-1.79</ele>
        <time>2018-04-06T07:30:53Z</time>
      </trkpt>
      <trkpt lat="47.84209" lon="-3.89383">
        <ele>-1.3</ele>
        <time>2018-04-06T07:30:54Z</time>
      </trkpt>
      <trkpt lat="47.8421" lon="-3.89384">
        <ele>-1.3</ele>
        <time>2018-04-06T07:30:55Z</time>
      </trkpt>
      <trkpt lat="47.84216" lon="-3.89389">
        <ele>0.14</ele>
        <time>2018-04-06T07:31:00Z</time>
      </trkpt>
      <trkpt lat="47.8422" lon="-3.8939">
        <ele>0.62</ele>
        <time>2018-04-06T07:31:03Z</time>
      </trkpt>
      <trkpt lat="47.84222" lon="-3.89391">
        <ele>0.62</ele>
        <time>2018-04-06T07:31:04Z</time>
      </trkpt>
      <trkpt lat="47.84225" lon="-3.89388">
        <ele>1.58</ele>
        <time>2018-04-06T07:31:09Z</time>
      </trkpt>
      <trkpt lat="47.84229" lon="-3.89383">
        <ele>2.06</ele>
        <time>2018-04-06T07:31:19Z</time>
      </trkpt>
      <trkpt lat="47.8423" lon="-3.89383">
        <ele>1.58</ele>
        <time>2018-04-06T07:31:20Z</time>
      </trkpt>
      <trkpt lat="47.84236" lon="-3.89377">
        <ele>-2.27</ele>
        <time>2018-04-06T07:31:30Z</time>
      </trkpt>
      <trkpt lat="47.84237" lon="-3.89377">
        <ele>-2.75</ele>
        <time>2018-04-06T07:31:31Z</time>
      </trkpt>
      <trkpt lat="47.84238" lon="-3.89375">
        <ele>-2.75</ele>
        <time>2018-04-06T07:31:32Z</time>
      </trkpt>
      <trkpt lat="47.8424" lon="-3.89374">
        <ele>-2.27</ele>
        <time>2018-04-06T07:31:34Z</time>
      </trkpt>
      <trkpt lat="47.84242" lon="-3.89374">
        <ele>-2.75</ele>
        <time>2018-04-06T07:31:35Z</time>
      </trkpt>
      <trkpt lat="47.84242" lon="-3.89373">
        <ele>-3.23</ele>
        <time>2018-04-06T07:31:36Z</time>
      </trkpt>
      <trkpt lat="47.84243" lon="-3.89372">
        <ele>-3.23</ele>
        <time>2018-04-06T07:31:37Z</time>
      </trkpt>
      <trkpt lat="47.8425" lon="-3.89368">
        <ele>-3.71</ele>
        <time>2018-04-06T07:31:44Z</time>
      </trkpt>
      <trkpt lat="47.84253" lon="-3.89365">
        <ele>-4.67</ele>
        <time>2018-04-06T07:31:48Z</time>
      </trkpt>
      <trkpt lat="47.84255" lon="-3.8936">
        <ele>-5.63</ele>
        <time>2018-04-06T07:31:52Z</time>
      </trkpt>
      <trkpt lat="47.84256" lon="-3.89359">
        <ele>-5.63</ele>
        <time>2018-04-06T07:31:53Z</time>
      </trkpt>
      <trkpt lat="47.84258" lon="-3.89355">
        <ele>-5.15</ele>
        <time>2018-04-06T07:31:56Z</time>
      </trkpt>
      <trkpt lat="47.84262" lon="-3.89351">
        <ele>-5.15</ele>
        <time>2018-04-06T07:31:59Z</time>
      </trkpt>
      <trkpt lat="47.84263" lon="-3.89349">
        <ele>-5.15</ele>
        <time>2018-04-06T07:32:01Z</time>
      </trkpt>
      <trkpt lat="47.84271" lon="-3.89341">
        <ele>-7.07</ele>
        <time>2018-04-06T07:32:10Z</time>
      </trkpt>
      <trkpt lat="47.84272" lon="-3.89336">
        <ele>-8.03</ele>
        <time>2018-04-06T07:32:14Z</time>
      </trkpt>
      <trkpt lat="47.84273" lon="-3.89335">
        <ele>-8.03</ele>
        <time>2018-04-06T07:32:15Z</time>
      </trkpt>
      <trkpt lat="47.84274" lon="-3.89334">
        <ele>-8.03</ele>
        <time>2018-04-06T07:32:16Z</time>
      </trkpt>
      <trkpt lat="47.84279" lon="-3.89323">
        <ele>-9.48</ele>
        <time>2018-04-06T07:32:25Z</time>
      </trkpt>
      <trkpt lat="47.84279" lon="-3.89312">
        <ele>-11.4</ele>
        <time>2018-04-06T07:32:34Z</time>
      </trkpt>
      <trkpt lat="47.84279" lon="-3.89302">
        <ele>-11.4</ele>
        <time>2018-04-06T07:32:40Z</time>
      </trkpt>
      <trkpt lat="47.8428" lon="-3.89296">
        <ele>-11.4</ele>
        <time>2018-04-06T07:32:44Z</time>
      </trkpt>
      <trkpt lat="47.8428" lon="-3.89282">
        <ele>-11.4</ele>
        <time>2018-04-06T07:32:53Z</time>
      </trkpt>
      <trkpt lat="47.8428" lon="-3.89278">
        <ele>-11.88</ele>
        <time>2018-04-06T07:32:55Z</time>
      </trkpt>
      <trkpt lat="47.8428" lon="-3.89265">
        <ele>-11.88</ele>
        <time>2018-04-06T07:33:04Z</time>
      </trkpt>
      <trkpt lat="47.84283" lon="-3.89246">
        <ele>-9.48</ele>
        <time>2018-04-06T07:33:16Z</time>
      </trkpt>
      <trkpt lat="47.84291" lon="-3.89239">
        <ele>-2.27</ele>
        <time>2018-04-06T07:33:22Z</time>
      </trkpt>
      <trkpt lat="47.84293" lon="-3.89236">
        <ele>-0.82</ele>
        <time>2018-04-06T07:33:24Z</time>
      </trkpt>
      <trkpt lat="47.84303" lon="-3.8922">
        <ele>1.1</ele>
        <time>2018-04-06T07:33:35Z</time>
      </trkpt>
      <trkpt lat="47.84309" lon="-3.89211">
        <ele>3.02</ele>
        <time>2018-04-06T07:33:45Z</time>
      </trkpt>
      <trkpt lat="47.84315" lon="-3.89202">
        <ele>4.94</ele>
        <time>2018-04-06T07:33:55Z</time>
      </trkpt>
      <trkpt lat="47.84321" lon="-3.89191">
        <ele>5.42</ele>
        <time>2018-04-06T07:34:05Z</time>
      </trkpt>
      <trkpt lat="47.84329" lon="-3.8918">
        <ele>5.42</ele>
        <time>2018-04-06T07:34:15Z</time>
      </trkpt>
      <trkpt lat="47.84332" lon="-3.89168">
        <ele>2.54</ele>
        <time>2018-04-06T07:34:27Z</time>
      </trkpt>
      <trkpt lat="47.84334" lon="-3.89159">
        <ele>2.54</ele>
        <time>2018-04-06T07:34:39Z</time>
      </trkpt>
      <trkpt lat="47.84338" lon="-3.8914">
        <ele>2.06</ele>
        <time>2018-04-06T07:34:53Z</time>
      </trkpt>
      <trkpt lat="47.84337" lon="-3.89124">
        <ele>0.14</ele>
        <time>2018-04-06T07:35:05Z</time>
      </trkpt>
      <trkpt lat="47.84338" lon="-3.89113">
        <ele>0.62</ele>
        <time>2018-04-06T07:35:11Z</time>
      </trkpt>
      <trkpt lat="47.84347" lon="-3.89108">
        <ele>2.54</ele>
        <time>2018-04-06T07:35:22Z</time>
      </trkpt>
      <trkpt lat="47.84348" lon="-3.89108">
        <ele>3.02</ele>
        <time>2018-04-06T07:35:24Z</time>
      </trkpt>
      <trkpt lat="47.84354" lon="-3.89114">
        <ele>3.5</ele>
        <time>2018-04-06T07:35:31Z</time>
      </trkpt>
      <trkpt lat="47.84365" lon="-3.8912">
        <ele>4.94</ele>
        <time>2018-04-06T07:35:42Z</time>
      </trkpt>
      <trkpt lat="47.84367" lon="-3.8912">
        <ele>4.46</ele>
        <time>2018-04-06T07:35:44Z</time>
      </trkpt>
      <trkpt lat="47.84372" lon="-3.89122">
        <ele>5.91</ele>
        <time>2018-04-06T07:35:48Z</time>
      </trkpt>
      <trkpt lat="47.84376" lon="-3.89127">
        <ele>7.35</ele>
        <time>2018-04-06T07:35:52Z</time>
      </trkpt>
      <trkpt lat="47.84385" lon="-3.89137">
        <ele>11.19</ele>
        <time>2018-04-06T07:36:01Z</time>
      </trkpt>
      <trkpt lat="47.84386" lon="-3.89145">
        <ele>11.67</ele>
        <time>2018-04-06T07:36:05Z</time>
      </trkpt>
      <trkpt lat="47.84387" lon="-3.89148">
        <ele>10.71</ele>
        <time>2018-04-06T07:36:07Z</time>
      </trkpt>
      <trkpt lat="47.8439" lon="-3.89154">
        <ele>11.67</ele>
        <time>2018-04-06T07:36:11Z</time>
      </trkpt>
      <trkpt lat="47.84399" lon="-3.89167">
        <ele>15.04</ele>
        <time>2018-04-06T07:36:23Z</time>
      </trkpt>
      <trkpt lat="47.84401" lon="-3.89184">
        <ele>7.83</ele>
        <time>2018-04-06T07:36:35Z</time>
      </trkpt>
      <trkpt lat="47.84404" lon="-3.89186">
        <ele>7.35</ele>
        <time>2018-04-06T07:36:39Z</time>
      </trkpt>
      <trkpt lat="47.84411" lon="-3.8919">
        <ele>6.39</ele>
        <time>2018-04-06T07:36:45Z</time>
      </trkpt>
      <trkpt lat="47.84418" lon="-3.89202">
        <ele>5.42</ele>
        <time>2018-04-06T07:36:56Z</time>
      </trkpt>
      <trkpt lat="47.84421" lon="-3.89204">
        <ele>3.02</ele>
        <time>2018-04-06T07:37:00Z</time>
      </trkpt>
      <trkpt lat="47.84426" lon="-3.89205">
        <ele>-0.82</ele>
        <time>2018-04-06T07:37:10Z</time>
      </trkpt>
      <trkpt lat="47.84435" lon="-3.89198">
        <ele>-0.34</ele>
        <time>2018-04-06T07:37:21Z</time>
      </trkpt>
      <trkpt lat="47.84441" lon="-3.89184">
        <ele>0.14</ele>
        <time>2018-04-06T07:37:33Z</time>
      </trkpt>
      <trkpt lat="47.84442" lon="-3.89184">
        <ele>-0.34</ele>
        <time>2018-04-06T07:37:34Z</time>
      </trkpt>
      <trkpt lat="47.84444" lon="-3.89184">
        <ele>-0.82</ele>
        <time>2018-04-06T07:37:36Z</time>
      </trkpt>
      <trkpt lat="47.84449" lon="-3.89181">
        <ele>0.14</ele>
        <time>2018-04-06T07:37:40Z</time>
      </trkpt>
      <trkpt lat="47.84453" lon="-3.89172">
        <ele>0.14</ele>
        <time>2018-04-06T07:37:47Z</time>
      </trkpt>
      <trkpt lat="47.84453" lon="-3.89168">
        <ele>1.58</ele>
        <time>2018-04-06T07:37:50Z</time>
      </trkpt>
      <trkpt lat="47.84452" lon="-3.89161">
        <ele>3.02</ele>
        <time>2018-04-06T07:37:56Z</time>
      </trkpt>
      <trkpt lat="47.84448" lon="-3.89157">
        <ele>3.98</ele>
        <time>2018-04-06T07:38:00Z</time>
      </trkpt>
      <trkpt lat="47.84439" lon="-3.8915">
        <ele>3.98</ele>
        <time>2018-04-06T07:38:09Z</time>
      </trkpt>
      <trkpt lat="47.84437" lon="-3.89149">
        <ele>4.46</ele>
        <time>2018-04-06T07:38:11Z</time>
      </trkpt>
      <trkpt lat="47.84428" lon="-3.89142">
        <ele>1.1</ele>
        <time>2018-04-06T07:38:22Z</time>
      </trkpt>
      <trkpt lat="47.84427" lon="-3.89136">
        <ele>1.1</ele>
        <time>2018-04-06T07:38:25Z</time>
      </trkpt>
      <trkpt lat="47.84431" lon="-3.89124">
        <ele>1.58</ele>
        <time>2018-04-06T07:38:32Z</time>
      </trkpt>
      <trkpt lat="47.84431" lon="-3.89119">
        <ele>1.58</ele>
        <time>2018-04-06T07:38:35Z</time>
      </trkpt>
      <trkpt lat="47.84434" lon="-3.89109">
        <ele>3.5</ele>
        <time>2018-04-06T07:38:42Z</time>
      </trkpt>
      <trkpt lat="47.84436" lon="-3.89107">
        <ele>3.98</ele>
        <time>2018-04-06T07:38:44Z</time>
      </trkpt>
      <trkpt lat="47.84441" lon="-3.89096">
        <ele>3.98</ele>
        <time>2018-04-06T07:38:53Z</time>
      </trkpt>
      <trkpt lat="47.84449" lon="-3.89089">
        <ele>4.94</ele>
        <time>2018-04-06T07:39:04Z</time>
      </trkpt>
      <trkpt lat="47.8445" lon="-3.89083">
        <ele>4.94</ele>
        <time>2018-04-06T07:39:08Z</time>
      </trkpt>
      <trkpt lat="47.8445" lon="-3.89076">
        <ele>3.98</ele>
        <time>2018-04-06T07:39:12Z</time>
      </trkpt>
      <trkpt lat="47.84459" lon="-3.8907">
        <ele>3.5</ele>
        <time>2018-04-06T07:39:23Z</time>
      </trkpt>
      <trkpt lat="47.84459" lon="-3.89066">
        <ele>2.06</ele>
        <time>2018-04-06T07:39:26Z</time>
      </trkpt>
      <trkpt lat="47.84461" lon="-3.89057">
        <ele>1.58</ele>
        <time>2018-04-06T07:39:33Z</time>
      </trkpt>
      <trkpt lat="47.8446" lon="-3.89051">
        <ele>1.1</ele>
        <time>2018-04-06T07:39:37Z</time>
      </trkpt>
      <trkpt lat="47.84449" lon="-3.89046">
        <ele>3.02</ele>
        <time>2018-04-06T07:39:49Z</time>
      </trkpt>
      <trkpt lat="47.84447" lon="-3.89042">
        <ele>4.94</ele>
        <time>2018-04-06T07:39:53Z</time>
      </trkpt>
      <trkpt lat="47.84438" lon="-3.89035">
        <ele>4.46</ele>
        <time>2018-04-06T07:40:03Z</time>
      </trkpt>
      <trkpt lat="47.84437" lon="-3.89034">
        <ele>3.98</ele>
        <time>2018-04-06T07:40:05Z</time>
      </trkpt>
      <trkpt lat="47.84435" lon="-3.89032">
        <ele>3.5</ele>
        <time>2018-04-06T07:40:07Z</time>
      </trkpt>
      <trkpt lat="47.84424" lon="-3.89028">
        <ele>2.06</ele>
        <time>2018-04-06T07:40:19Z</time>
      </trkpt>
      <trkpt lat="47.84422" lon="-3.89027">
        <ele>2.54</ele>
        <time>2018-04-06T07:40:21Z</time>
      </trkpt>
      <trkpt lat="47.84418" lon="-3.89023">
        <ele>4.94</ele>
        <time>2018-04-06T07:40:34Z</time>
      </trkpt>
      <trkpt lat="47.84407" lon="-3.89016">
        <ele>7.83</ele>
        <time>2018-04-06T07:40:51Z</time>
      </trkpt>
      <trkpt lat="47.84403" lon="-3.8899">
        <ele>7.83</ele>
        <time>2018-04-06T07:41:08Z</time>
      </trkpt>
      <trkpt lat="47.84401" lon="-3.8896">
        <ele>5.42</ele>
        <time>2018-04-06T07:41:29Z</time>
      </trkpt>
      <trkpt lat="47.84404" lon="-3.88959">
        <ele>4.94</ele>
        <time>2018-04-06T07:41:32Z</time>
      </trkpt>
      <trkpt lat="47.84409" lon="-3.88973">
        <ele>5.42</ele>
        <time>2018-04-06T07:41:41Z</time>
      </trkpt>
      <trkpt lat="47.84411" lon="-3.88977">
        <ele>5.42</ele>
        <time>2018-04-06T07:41:44Z</time>
      </trkpt>
      <trkpt lat="47.84415" lon="-3.88979">
        <ele>6.39</ele>
        <time>2018-04-06T07:41:48Z</time>
      </trkpt>
      <trkpt lat="47.84418" lon="-3.88981">
        <ele>6.87</ele>
        <time>2018-04-06T07:41:51Z</time>
      </trkpt>
      <trkpt lat="47.84423" lon="-3.88984">
        <ele>8.31</ele>
        <time>2018-04-06T07:41:55Z</time>
      </trkpt>
      <trkpt lat="47.84426" lon="-3.88987">
        <ele>8.31</ele>
        <time>2018-04-06T07:41:58Z</time>
      </trkpt>
      <trkpt lat="47.8443" lon="-3.88989">
        <ele>7.35</ele>
        <time>2018-04-06T07:42:02Z</time>
      </trkpt>
      <trkpt lat="47.84435" lon="-3.88991">
        <ele>7.35</ele>
        <time>2018-04-06T07:42:07Z</time>
      </trkpt>
      <trkpt lat="47.84451" lon="-3.89001">
        <ele>13.6</ele>
        <time>2018-04-06T07:42:22Z</time>
      </trkpt>
      <trkpt lat="47.8447" lon="-3.89017">
        <ele>11.67</ele>
        <time>2018-04-06T07:42:41Z</time>
      </trkpt>
      <trkpt lat="47.84477" lon="-3.89026">
        <ele>11.19</ele>
        <time>2018-04-06T07:42:49Z</time>
      </trkpt>
      <trkpt lat="47.84478" lon="-3.89028">
        <ele>11.19</ele>
        <time>2018-04-06T07:42:51Z</time>
      </trkpt>
      <trkpt lat="47.84484" lon="-3.89039">
        <ele>10.71</ele>
        <time>2018-04-06T07:42:58Z</time>
      </trkpt>
      <trkpt lat="47.84485" lon="-3.89046">
        <ele>10.23</ele>
        <time>2018-04-06T07:43:02Z</time>
      </trkpt>
      <trkpt lat="47.84487" lon="-3.89056">
        <ele>7.35</ele>
        <time>2018-04-06T07:43:08Z</time>
      </trkpt>
      <trkpt lat="47.84486" lon="-3.89068">
        <ele>1.58</ele>
        <time>2018-04-06T07:43:18Z</time>
      </trkpt>
      <trkpt lat="47.84487" lon="-3.89072">
        <ele>1.1</ele>
        <time>2018-04-06T07:43:20Z</time>
      </trkpt>
      <trkpt lat="47.84486" lon="-3.89078">
        <ele>-0.34</ele>
        <time>2018-04-06T07:43:25Z</time>
      </trkpt>
      <trkpt lat="47.8449" lon="-3.89099">
        <ele>-1.3</ele>
        <time>2018-04-06T07:43:36Z</time>
      </trkpt>
      <trkpt lat="47.84502" lon="-3.89121">
        <ele>2.06</ele>
        <time>2018-04-06T07:43:52Z</time>
      </trkpt>
      <trkpt lat="47.84505" lon="-3.89125">
        <ele>1.58</ele>
        <time>2018-04-06T07:43:56Z</time>
      </trkpt>
      <trkpt lat="47.84511" lon="-3.89129">
        <ele>3.02</ele>
        <time>2018-04-06T07:44:00Z</time>
      </trkpt>
      <trkpt lat="47.84516" lon="-3.8913">
        <ele>3.98</ele>
        <time>2018-04-06T07:44:03Z</time>
      </trkpt>
      <trkpt lat="47.84526" lon="-3.89128">
        <ele>4.94</ele>
        <time>2018-04-06T07:44:11Z</time>
      </trkpt>
      <trkpt lat="47.84539" lon="-3.89121">
        <ele>7.35</ele>
        <time>2018-04-06T07:44:21Z</time>
      </trkpt>
      <trkpt lat="47.8454" lon="-3.89119">
        <ele>6.87</ele>
        <time>2018-04-06T07:44:23Z</time>
      </trkpt>
      <trkpt lat="47.84543" lon="-3.89117">
        <ele>6.87</ele>
        <time>2018-04-06T07:44:26Z</time>
      </trkpt>
      <trkpt lat="47.84549" lon="-3.89113">
        <ele>5.91</ele>
        <time>2018-04-06T07:44:31Z</time>
      </trkpt>
      <trkpt lat="47.84554" lon="-3.89112">
        <ele>5.42</ele>
        <time>2018-04-06T07:44:35Z</time>
      </trkpt>
      <trkpt lat="47.84562" lon="-3.89108">
        <ele>5.42</ele>
        <time>2018-04-06T07:44:42Z</time>
      </trkpt>
      <trkpt lat="47.84566" lon="-3.89104">
        <ele>5.91</ele>
        <time>2018-04-06T07:44:47Z</time>
      </trkpt>
      <trkpt lat="47.8457" lon="-3.89103">
        <ele>6.39</ele>
        <time>2018-04-06T07:44:50Z</time>
      </trkpt>
      <trkpt lat="47.84572" lon="-3.89101">
        <ele>6.87</ele>
        <time>2018-04-06T07:44:52Z</time>
      </trkpt>
      <trkpt lat="47.84586" lon="-3.89096">
        <ele>6.87</ele>
        <time>2018-04-06T07:45:04Z</time>
      </trkpt>
      <trkpt lat="47.84592" lon="-3.89092">
        <ele>5.42</ele>
        <time>2018-04-06T07:45:10Z</time>
      </trkpt>
      <trkpt lat="47.84601" lon="-3.89081">
        <ele>4.94</ele>
        <time>2018-04-06T07:45:22Z</time>
      </trkpt>
      <trkpt lat="47.84603" lon="-3.89075">
        <ele>1.1</ele>
        <time>2018-04-06T07:45:28Z</time>
      </trkpt>
      <trkpt lat="47.84603" lon="-3.89071">
        <ele>-0.34</ele>
        <time>2018-04-06T07:45:31Z</time>
      </trkpt>
      <trkpt lat="47.84623" lon="-3.89068">
        <ele>3.98</ele>
        <time>2018-04-06T07:45:43Z</time>
      </trkpt>
      <trkpt lat="47.84635" lon="-3.8906">
        <ele>3.98</ele>
        <time>2018-04-06T07:45:56Z</time>
      </trkpt>
      <trkpt lat="47.84643" lon="-3.89056">
        <ele>2.54</ele>
        <time>2018-04-06T07:46:02Z</time>
      </trkpt>
      <trkpt lat="47.84652" lon="-3.89053">
        <ele>3.5</ele>
        <time>2018-04-06T07:46:08Z</time>
      </trkpt>
      <trkpt lat="47.84655" lon="-3.89047">
        <ele>4.46</ele>
        <time>2018-04-06T07:46:12Z</time>
      </trkpt>
      <trkpt lat="47.84662" lon="-3.89044">
        <ele>5.42</ele>
        <time>2018-04-06T07:46:23Z</time>
      </trkpt>
      <trkpt lat="47.84674" lon="-3.89049">
        <ele>6.87</ele>
        <time>2018-04-06T07:46:33Z</time>
      </trkpt>
      <trkpt lat="47.84676" lon="-3.8905">
        <ele>6.87</ele>
        <time>2018-04-06T07:46:35Z</time>
      </trkpt>
      <trkpt lat="47.84681" lon="-3.89051">
        <ele>6.87</ele>
        <time>2018-04-06T07:46:40Z</time>
      </trkpt>
      <trkpt lat="47.84684" lon="-3.89053">
        <ele>6.39</ele>
        <time>2018-04-06T07:46:43Z</time>
      </trkpt>
      <trkpt lat="47.84691" lon="-3.89054">
        <ele>3.98</ele>
        <time>2018-04-06T07:46:51Z</time>
      </trkpt>
      <trkpt lat="47.84702" lon="-3.89058">
        <ele>1.58</ele>
        <time>2018-04-06T07:47:02Z</time>
      </trkpt>
      <trkpt lat="47.8471" lon="-3.89062">
        <ele>1.58</ele>
        <time>2018-04-06T07:47:14Z</time>
      </trkpt>
      <trkpt lat="47.84723" lon="-3.89067">
        <ele>0.14</ele>
        <time>2018-04-06T07:47:28Z</time>
      </trkpt>
      <trkpt lat="47.84727" lon="-3.89073">
        <ele>-0.34</ele>
        <time>2018-04-06T07:47:41Z</time>
      </trkpt>
      <trkpt lat="47.84736" lon="-3.89079">
        <ele>0.62</ele>
        <time>2018-04-06T07:47:51Z</time>
      </trkpt>
      <trkpt lat="47.84739" lon="-3.89084">
        <ele>-0.82</ele>
        <time>2018-04-06T07:47:56Z</time>
      </trkpt>
      <trkpt lat="47.8475" lon="-3.89094">
        <ele>-3.23</ele>
        <time>2018-04-06T07:48:08Z</time>
      </trkpt>
      <trkpt lat="47.84759" lon="-3.89106">
        <ele>-3.23</ele>
        <time>2018-04-06T07:48:20Z</time>
      </trkpt>
      <trkpt lat="47.84774" lon="-3.89104">
        <ele>-2.27</ele>
        <time>2018-04-06T07:48:32Z</time>
      </trkpt>
      <trkpt lat="47.84775" lon="-3.89104">
        <ele>-2.27</ele>
        <time>2018-04-06T07:48:33Z</time>
      </trkpt>
      <trkpt lat="47.84782" lon="-3.89096">
        <ele>-0.82</ele>
        <time>2018-04-06T07:48:40Z</time>
      </trkpt>
      <trkpt lat="47.84789" lon="-3.89083">
        <ele>0.14</ele>
        <time>2018-04-06T07:48:51Z</time>
      </trkpt>
      <trkpt lat="47.8479" lon="-3.89075">
        <ele>0.14</ele>
        <time>2018-04-06T07:48:56Z</time>
      </trkpt>
      <trkpt lat="47.84789" lon="-3.89071">
        <ele>0.14</ele>
        <time>2018-04-06T07:48:58Z</time>
      </trkpt>
      <trkpt lat="47.84787" lon="-3.89061">
        <ele>-0.34</ele>
        <time>2018-04-06T07:49:05Z</time>
      </trkpt>
      <trkpt lat="47.84777" lon="-3.89052">
        <ele>-2.27</ele>
        <time>2018-04-06T07:49:14Z</time>
      </trkpt>
      <trkpt lat="47.84773" lon="-3.8905">
        <ele>-3.23</ele>
        <time>2018-04-06T07:49:18Z</time>
      </trkpt>
      <trkpt lat="47.84771" lon="-3.89046">
        <ele>-3.71</ele>
        <time>2018-04-06T07:49:21Z</time>
      </trkpt>
      <trkpt lat="47.8477" lon="-3.89038">
        <ele>-1.79</ele>
        <time>2018-04-06T07:49:26Z</time>
      </trkpt>
      <trkpt lat="47.84768" lon="-3.89033">
        <ele>-0.34</ele>
        <time>2018-04-06T07:49:29Z</time>
      </trkpt>
      <trkpt lat="47.84767" lon="-3.89014">
        <ele>3.02</ele>
        <time>2018-04-06T07:49:40Z</time>
      </trkpt>
      <trkpt lat="47.84766" lon="-3.88998">
        <ele>1.1</ele>
        <time>2018-04-06T07:49:50Z</time>
      </trkpt>
      <trkpt lat="47.84765" lon="-3.88995">
        <ele>1.58</ele>
        <time>2018-04-06T07:49:52Z</time>
      </trkpt>
      <trkpt lat="47.84766" lon="-3.88977">
        <ele>3.5</ele>
        <time>2018-04-06T07:50:01Z</time>
      </trkpt>
      <trkpt lat="47.84774" lon="-3.88959">
        <ele>3.5</ele>
        <time>2018-04-06T07:50:14Z</time>
      </trkpt>
      <trkpt lat="47.84778" lon="-3.88943">
        <ele>3.5</ele>
        <time>2018-04-06T07:50:23Z</time>
      </trkpt>
      <trkpt lat="47.84785" lon="-3.88927">
        <ele>5.42</ele>
        <time>2018-04-06T07:50:34Z</time>
      </trkpt>
      <trkpt lat="47.84797" lon="-3.88902">
        <ele>4.94</ele>
        <time>2018-04-06T07:50:49Z</time>
      </trkpt>
      <trkpt lat="47.84804" lon="-3.88892">
        <ele>2.06</ele>
        <time>2018-04-06T07:51:00Z</time>
      </trkpt>
      <trkpt lat="47.84805" lon="-3.88891">
        <ele>2.06</ele>
        <time>2018-04-06T07:51:01Z</time>
      </trkpt>
      <trkpt lat="47.84811" lon="-3.88891">
        <ele>2.54</ele>
        <time>2018-04-06T07:51:06Z</time>
      </trkpt>
      <trkpt lat="47.84826" lon="-3.8888">
        <ele>1.58</ele>
        <time>2018-04-06T07:51:21Z</time>
      </trkpt>
      <trkpt lat="47.84834" lon="-3.88878">
        <ele>1.58</ele>
        <time>2018-04-06T07:51:28Z</time>
      </trkpt>
      <trkpt lat="47.84848" lon="-3.8888">
        <ele>2.06</ele>
        <time>2018-04-06T07:51:38Z</time>
      </trkpt>
      <trkpt lat="47.84851" lon="-3.88878">
        <ele>3.5</ele>
        <time>2018-04-06T07:51:41Z</time>
      </trkpt>
      <trkpt lat="47.84855" lon="-3.88874">
        <ele>3.98</ele>
        <time>2018-04-06T07:51:45Z</time>
      </trkpt>
      <trkpt lat="47.84853" lon="-3.88869">
        <ele>3.98</ele>
        <time>2018-04-06T07:51:49Z</time>
      </trkpt>
      <trkpt lat="47.84851" lon="-3.88863">
        <ele>3.98</ele>
        <time>2018-04-06T07:51:53Z</time>
      </trkpt>
      <trkpt lat="47.84853" lon="-3.88849">
        <ele>2.06</ele>
        <time>2018-04-06T07:52:03Z</time>
      </trkpt>
      <trkpt lat="47.84857" lon="-3.88838">
        <ele>1.58</ele>
        <time>2018-04-06T07:52:13Z</time>
      </trkpt>
      <trkpt lat="47.84858" lon="-3.88827">
        <ele>-2.27</ele>
        <time>2018-04-06T07:52:24Z</time>
      </trkpt>
      <trkpt lat="47.84856" lon="-3.88819">
        <ele>-4.19</ele>
        <time>2018-04-06T07:52:30Z</time>
      </trkpt>
      <trkpt lat="47.84856" lon="-3.8881">
        <ele>-4.67</ele>
        <time>2018-04-06T07:52:36Z</time>
      </trkpt>
      <trkpt lat="47.84852" lon="-3.88803">
        <ele>-5.63</ele>
        <time>2018-04-06T07:52:41Z</time>
      </trkpt>
      <trkpt lat="47.84853" lon="-3.88779">
        <ele>-2.75</ele>
        <time>2018-04-06T07:52:54Z</time>
      </trkpt>
      <trkpt lat="47.84853" lon="-3.88779">
        <ele>-1.3</ele>
        <time>2018-04-06T07:52:56Z</time>
      </trkpt>
      <trkpt lat="47.84854" lon="-3.88769">
        <ele>-0.34</ele>
        <time>2018-04-06T07:53:00Z</time>
      </trkpt>
      <trkpt lat="47.84856" lon="-3.88743">
        <ele>3.02</ele>
        <time>2018-04-06T07:53:13Z</time>
      </trkpt>
      <trkpt lat="47.84856" lon="-3.88741">
        <ele>3.02</ele>
        <time>2018-04-06T07:53:14Z</time>
      </trkpt>
      <trkpt lat="47.84856" lon="-3.88729">
        <ele>3.98</ele>
        <time>2018-04-06T07:53:22Z</time>
      </trkpt>
      <trkpt lat="47.84854" lon="-3.88716">
        <ele>1.1</ele>
        <time>2018-04-06T07:53:32Z</time>
      </trkpt>
      <trkpt lat="47.84851" lon="-3.88706">
        <ele>-1.79</ele>
        <time>2018-04-06T07:53:45Z</time>
      </trkpt>
      <trkpt lat="47.84851" lon="-3.88699">
        <ele>-2.27</ele>
        <time>2018-04-06T07:53:51Z</time>
      </trkpt>
      <trkpt lat="47.84847" lon="-3.88684">
        <ele>-0.82</ele>
        <time>2018-04-06T07:54:01Z</time>
      </trkpt>
      <trkpt lat="47.84847" lon="-3.88681">
        <ele>-0.34</ele>
        <time>2018-04-06T07:54:03Z</time>
      </trkpt>
      <trkpt lat="47.84857" lon="-3.88663">
        <ele>-0.34</ele>
        <time>2018-04-06T07:54:18Z</time>
      </trkpt>
      <trkpt lat="47.84861" lon="-3.88661">
        <ele>-0.34</ele>
        <time>2018-04-06T07:54:31Z</time>
      </trkpt>
      <trkpt lat="47.84858" lon="-3.88669">
        <ele>-2.75</ele>
        <time>2018-04-06T07:54:57Z</time>
      </trkpt>
      <trkpt lat="47.8486" lon="-3.88662">
        <ele>-1.79</ele>
        <time>2018-04-06T07:55:02Z</time>
      </trkpt>
      <trkpt lat="47.84863" lon="-3.88651">
        <ele>-0.34</ele>
        <time>2018-04-06T07:55:07Z</time>
      </trkpt>
      <trkpt lat="47.84865" lon="-3.88647">
        <ele>-1.3</ele>
        <time>2018-04-06T07:55:10Z</time>
      </trkpt>
      <trkpt lat="47.84873" lon="-3.88638">
        <ele>-0.82</ele>
        <time>2018-04-06T07:55:18Z</time>
      </trkpt>
      <trkpt lat="47.84877" lon="-3.88632">
        <ele>-0.82</ele>
        <time>2018-04-06T07:55:23Z</time>
      </trkpt>
      <trkpt lat="47.84877" lon="-3.88629">
        <ele>-1.3</ele>
        <time>2018-04-06T07:55:25Z</time>
      </trkpt>
      <trkpt lat="47.84879" lon="-3.88627">
        <ele>-1.79</ele>
        <time>2018-04-06T07:55:27Z</time>
      </trkpt>
      <trkpt lat="47.84881" lon="-3.88624">
        <ele>-0.82</ele>
        <time>2018-04-06T07:55:30Z</time>
      </trkpt>
      <trkpt lat="47.84892" lon="-3.88624">
        <ele>0.14</ele>
        <time>2018-04-06T07:55:40Z</time>
      </trkpt>
      <trkpt lat="47.84901" lon="-3.88629">
        <ele>-0.34</ele>
        <time>2018-04-06T07:55:50Z</time>
      </trkpt>
      <trkpt lat="47.84902" lon="-3.88629">
        <ele>-0.34</ele>
        <time>2018-04-06T07:55:51Z</time>
      </trkpt>
      <trkpt lat="47.8491" lon="-3.88639">
        <ele>1.58</ele>
        <time>2018-04-06T07:56:00Z</time>
      </trkpt>
      <trkpt lat="47.84915" lon="-3.88641">
        <ele>1.1</ele>
        <time>2018-04-06T07:56:04Z</time>
      </trkpt>
      <trkpt lat="47.84922" lon="-3.88648">
        <ele>0.62</ele>
        <time>2018-04-06T07:56:12Z</time>
      </trkpt>
      <trkpt lat="47.84923" lon="-3.88651">
        <ele>0.62</ele>
        <time>2018-04-06T07:56:14Z</time>
      </trkpt>
      <trkpt lat="47.8493" lon="-3.88656">
        <ele>1.58</ele>
        <time>2018-04-06T07:56:25Z</time>
      </trkpt>
      <trkpt lat="47.84931" lon="-3.88658">
        <ele>2.06</ele>
        <time>2018-04-06T07:56:27Z</time>
      </trkpt>
      <trkpt lat="47.84936" lon="-3.88661">
        <ele>1.58</ele>
        <time>2018-04-06T07:56:32Z</time>
      </trkpt>
      <trkpt lat="47.84942" lon="-3.88663">
        <ele>1.1</ele>
        <time>2018-04-06T07:56:37Z</time>
      </trkpt>
      <trkpt lat="47.84955" lon="-3.88671">
        <ele>-0.34</ele>
        <time>2018-04-06T07:56:49Z</time>
      </trkpt>
      <trkpt lat="47.84961" lon="-3.88678">
        <ele>0.14</ele>
        <time>2018-04-06T07:56:55Z</time>
      </trkpt>
      <trkpt lat="47.8497" lon="-3.88693">
        <ele>1.58</ele>
        <time>2018-04-06T07:57:06Z</time>
      </trkpt>
      <trkpt lat="47.84973" lon="-3.88709">
        <ele>3.5</ele>
        <time>2018-04-06T07:57:15Z</time>
      </trkpt>
      <trkpt lat="47.84972" lon="-3.88725">
        <ele>3.98</ele>
        <time>2018-04-06T07:57:24Z</time>
      </trkpt>
      <trkpt lat="47.84972" lon="-3.88733">
        <ele>3.02</ele>
        <time>2018-04-06T07:57:28Z</time>
      </trkpt>
      <trkpt lat="47.84972" lon="-3.88741">
        <ele>2.54</ele>
        <time>2018-04-06T07:57:33Z</time>
      </trkpt>
      <trkpt lat="47.84974" lon="-3.88747">
        <ele>2.54</ele>
        <time>2018-04-06T07:57:37Z</time>
      </trkpt>
      <trkpt lat="47.84975" lon="-3.88758">
        <ele>1.1</ele>
        <time>2018-04-06T07:57:44Z</time>
      </trkpt>
      <trkpt lat="47.8499" lon="-3.88786">
        <ele>3.5</ele>
        <time>2018-04-06T07:58:05Z</time>
      </trkpt>
      <trkpt lat="47.84991" lon="-3.88811">
        <ele>4.46</ele>
        <time>2018-04-06T07:58:20Z</time>
      </trkpt>
      <trkpt lat="47.84992" lon="-3.88814">
        <ele>4.46</ele>
        <time>2018-04-06T07:58:22Z</time>
      </trkpt>
      <trkpt lat="47.84991" lon="-3.88836">
        <ele>3.5</ele>
        <time>2018-04-06T07:58:34Z</time>
      </trkpt>
      <trkpt lat="47.84987" lon="-3.88849">
        <ele>3.02</ele>
        <time>2018-04-06T07:58:42Z</time>
      </trkpt>
      <trkpt lat="47.84984" lon="-3.8886">
        <ele>0.62</ele>
        <time>2018-04-06T07:58:51Z</time>
      </trkpt>
      <trkpt lat="47.8498" lon="-3.88874">
        <ele>0.62</ele>
        <time>2018-04-06T07:58:59Z</time>
      </trkpt>
      <trkpt lat="47.84979" lon="-3.88887">
        <ele>1.1</ele>
        <time>2018-04-06T07:59:06Z</time>
      </trkpt>
      <trkpt lat="47.84979" lon="-3.88893">
        <ele>1.58</ele>
        <time>2018-04-06T07:59:09Z</time>
      </trkpt>
      <trkpt lat="47.84979" lon="-3.88911">
        <ele>-0.34</ele>
        <time>2018-04-06T07:59:21Z</time>
      </trkpt>
      <trkpt lat="47.84976" lon="-3.88922">
        <ele>-4.19</ele>
        <time>2018-04-06T07:59:31Z</time>
      </trkpt>
      <trkpt lat="47.84977" lon="-3.88928">
        <ele>-5.63</ele>
        <time>2018-04-06T07:59:36Z</time>
      </trkpt>
      <trkpt lat="47.84975" lon="-3.88934">
        <ele>-6.11</ele>
        <time>2018-04-06T07:59:40Z</time>
      </trkpt>
      <trkpt lat="47.84973" lon="-3.88948">
        <ele>-6.11</ele>
        <time>2018-04-06T07:59:48Z</time>
      </trkpt>
      <trkpt lat="47.84972" lon="-3.88957">
        <ele>-8.03</ele>
        <time>2018-04-06T07:59:54Z</time>
      </trkpt>
      <trkpt lat="47.84969" lon="-3.88967">
        <ele>-7.07</ele>
        <time>2018-04-06T07:59:59Z</time>
      </trkpt>
      <trkpt lat="47.84968" lon="-3.8897">
        <ele>-7.07</ele>
        <time>2018-04-06T08:00:01Z</time>
      </trkpt>
      <trkpt lat="47.84966" lon="-3.8898">
        <ele>-6.11</ele>
        <time>2018-04-06T08:00:09Z</time>
      </trkpt>
      <trkpt lat="47.84965" lon="-3.88989">
        <ele>-5.63</ele>
        <time>2018-04-06T08:00:14Z</time>
      </trkpt>
      <trkpt lat="47.84959" lon="-3.88996">
        <ele>-5.15</ele>
        <time>2018-04-06T08:00:20Z</time>
      </trkpt>
      <trkpt lat="47.84955" lon="-3.89">
        <ele>-6.11</ele>
        <time>2018-04-06T08:00:25Z</time>
      </trkpt>
      <trkpt lat="47.84948" lon="-3.89007">
        <ele>-3.71</ele>
        <time>2018-04-06T08:00:32Z</time>
      </trkpt>
      <trkpt lat="47.84943" lon="-3.89019">
        <ele>-2.27</ele>
        <time>2018-04-06T08:00:41Z</time>
      </trkpt>
      <trkpt lat="47.84941" lon="-3.89032">
        <ele>-2.75</ele>
        <time>2018-04-06T08:00:49Z</time>
      </trkpt>
      <trkpt lat="47.84936" lon="-3.89044">
        <ele>-3.71</ele>
        <time>2018-04-06T08:00:58Z</time>
      </trkpt>
      <trkpt lat="47.84927" lon="-3.89057">
        <ele>-4.19</ele>
        <time>2018-04-06T08:01:09Z</time>
      </trkpt>
      <trkpt lat="47.84924" lon="-3.89076">
        <ele>-2.27</ele>
        <time>2018-04-06T08:01:19Z</time>
      </trkpt>
      <trkpt lat="47.84923" lon="-3.89085">
        <ele>-3.23</ele>
        <time>2018-04-06T08:01:25Z</time>
      </trkpt>
      <trkpt lat="47.84924" lon="-3.89089">
        <ele>-3.23</ele>
        <time>2018-04-06T08:01:28Z</time>
      </trkpt>
      <trkpt lat="47.84928" lon="-3.89097">
        <ele>-3.23</ele>
        <time>2018-04-06T08:01:33Z</time>
      </trkpt>
      <trkpt lat="47.84929" lon="-3.89102">
        <ele>-2.75</ele>
        <time>2018-04-06T08:01:36Z</time>
      </trkpt>
      <trkpt lat="47.84931" lon="-3.89108">
        <ele>-2.27</ele>
        <time>2018-04-06T08:01:40Z</time>
      </trkpt>
      <trkpt lat="47.84931" lon="-3.89111">
        <ele>-0.82</ele>
        <time>2018-04-06T08:01:43Z</time>
      </trkpt>
      <trkpt lat="47.84938" lon="-3.89126">
        <ele>1.1</ele>
        <time>2018-04-06T08:01:55Z</time>
      </trkpt>
      <trkpt lat="47.8494" lon="-3.89139">
        <ele>-1.3</ele>
        <time>2018-04-06T08:02:06Z</time>
      </trkpt>
      <trkpt lat="47.84939" lon="-3.89142">
        <ele>-1.79</ele>
        <time>2018-04-06T08:02:08Z</time>
      </trkpt>
      <trkpt lat="47.84937" lon="-3.8915">
        <ele>-0.82</ele>
        <time>2018-04-06T08:02:13Z</time>
      </trkpt>
      <trkpt lat="47.84936" lon="-3.89167">
        <ele>-0.82</ele>
        <time>2018-04-06T08:02:25Z</time>
      </trkpt>
      <trkpt lat="47.84934" lon="-3.89186">
        <ele>1.1</ele>
        <time>2018-04-06T08:02:39Z</time>
      </trkpt>
      <trkpt lat="47.84921" lon="-3.8921">
        <ele>2.54</ele>
        <time>2018-04-06T08:02:57Z</time>
      </trkpt>
      <trkpt lat="47.84919" lon="-3.89214">
        <ele>2.54</ele>
        <time>2018-04-06T08:03:00Z</time>
      </trkpt>
      <trkpt lat="47.84908" lon="-3.89234">
        <ele>7.35</ele>
        <time>2018-04-06T08:03:16Z</time>
      </trkpt>
      <trkpt lat="47.84907" lon="-3.89242">
        <ele>8.31</ele>
        <time>2018-04-06T08:03:21Z</time>
      </trkpt>
      <trkpt lat="47.84905" lon="-3.89256">
        <ele>6.87</ele>
        <time>2018-04-06T08:03:32Z</time>
      </trkpt>
      <trkpt lat="47.84905" lon="-3.89261">
        <ele>7.35</ele>
        <time>2018-04-06T08:03:35Z</time>
      </trkpt>
      <trkpt lat="47.84904" lon="-3.89273">
        <ele>7.35</ele>
        <time>2018-04-06T08:03:41Z</time>
      </trkpt>
      <trkpt lat="47.84904" lon="-3.8929">
        <ele>3.5</ele>
        <time>2018-04-06T08:03:49Z</time>
      </trkpt>
      <trkpt lat="47.84913" lon="-3.89291">
        <ele>1.1</ele>
        <time>2018-04-06T08:04:02Z</time>
      </trkpt>
      <trkpt lat="47.84917" lon="-3.893">
        <ele>0.14</ele>
        <time>2018-04-06T08:04:12Z</time>
      </trkpt>
      <trkpt lat="47.84921" lon="-3.8932">
        <ele>-1.3</ele>
        <time>2018-04-06T08:04:24Z</time>
      </trkpt>
      <trkpt lat="47.84922" lon="-3.89324">
        <ele>-1.3</ele>
        <time>2018-04-06T08:04:26Z</time>
      </trkpt>
      <trkpt lat="47.8493" lon="-3.89328">
        <ele>-1.79</ele>
        <time>2018-04-06T08:04:37Z</time>
      </trkpt>
      <trkpt lat="47.84934" lon="-3.8933">
        <ele>-0.82</ele>
        <time>2018-04-06T08:04:44Z</time>
      </trkpt>
      <trkpt lat="47.84939" lon="-3.89348">
        <ele>-2.27</ele>
        <time>2018-04-06T08:04:56Z</time>
      </trkpt>
      <trkpt lat="47.84937" lon="-3.89369">
        <ele>-0.82</ele>
        <time>2018-04-06T08:05:08Z</time>
      </trkpt>
      <trkpt lat="47.84937" lon="-3.89377">
        <ele>-0.82</ele>
        <time>2018-04-06T08:05:12Z</time>
      </trkpt>
      <trkpt lat="47.8494" lon="-3.89393">
        <ele>-0.82</ele>
        <time>2018-04-06T08:05:22Z</time>
      </trkpt>
      <trkpt lat="47.84944" lon="-3.89409">
        <ele>-0.34</ele>
        <time>2018-04-06T08:05:32Z</time>
      </trkpt>
      <trkpt lat="47.84947" lon="-3.89423">
        <ele>0.62</ele>
        <time>2018-04-06T08:05:41Z</time>
      </trkpt>
      <trkpt lat="47.84947" lon="-3.89434">
        <ele>3.02</ele>
        <time>2018-04-06T08:05:50Z</time>
      </trkpt>
      <trkpt lat="47.84947" lon="-3.89441">
        <ele>3.5</ele>
        <time>2018-04-06T08:05:54Z</time>
      </trkpt>
      <trkpt lat="47.84946" lon="-3.89447">
        <ele>3.5</ele>
        <time>2018-04-06T08:05:57Z</time>
      </trkpt>
      <trkpt lat="47.84948" lon="-3.89451">
        <ele>3.02</ele>
        <time>2018-04-06T08:06:00Z</time>
      </trkpt>
      <trkpt lat="47.84949" lon="-3.89457">
        <ele>1.58</ele>
        <time>2018-04-06T08:06:03Z</time>
      </trkpt>
      <trkpt lat="47.84953" lon="-3.89465">
        <ele>1.1</ele>
        <time>2018-04-06T08:06:15Z</time>
      </trkpt>
      <trkpt lat="47.84954" lon="-3.89464">
        <ele>1.1</ele>
        <time>2018-04-06T08:06:16Z</time>
      </trkpt>
      <trkpt lat="47.84959" lon="-3.89457">
        <ele>2.54</ele>
        <time>2018-04-06T08:06:22Z</time>
      </trkpt>
      <trkpt lat="47.84961" lon="-3.89455">
        <ele>3.02</ele>
        <time>2018-04-06T08:06:23Z</time>
      </trkpt>
      <trkpt lat="47.84962" lon="-3.89454">
        <ele>3.02</ele>
        <time>2018-04-06T08:06:24Z</time>
      </trkpt>
      <trkpt lat="47.84963" lon="-3.89453">
        <ele>3.02</ele>
        <time>2018-04-06T08:06:25Z</time>
      </trkpt>
      <trkpt lat="47.84964" lon="-3.89452">
        <ele>3.02</ele>
        <time>2018-04-06T08:06:26Z</time>
      </trkpt>
      <trkpt lat="47.8497" lon="-3.89441">
        <ele>3.02</ele>
        <time>2018-04-06T08:06:36Z</time>
      </trkpt>
      <trkpt lat="47.84973" lon="-3.89437">
        <ele>2.54</ele>
        <time>2018-04-06T08:06:39Z</time>
      </trkpt>
      <trkpt lat="47.84976" lon="-3.89427">
        <ele>2.06</ele>
        <time>2018-04-06T08:06:46Z</time>
      </trkpt>
      <trkpt lat="47.84978" lon="-3.89421">
        <ele>2.54</ele>
        <time>2018-04-06T08:06:50Z</time>
      </trkpt>
      <trkpt lat="47.84985" lon="-3.89403">
        <ele>3.98</ele>
        <time>2018-04-06T08:07:05Z</time>
      </trkpt>
      <trkpt lat="47.84993" lon="-3.89389">
        <ele>4.46</ele>
        <time>2018-04-06T08:07:18Z</time>
      </trkpt>
      <trkpt lat="47.84998" lon="-3.89381">
        <ele>5.91</ele>
        <time>2018-04-06T08:07:24Z</time>
      </trkpt>
      <trkpt lat="47.84999" lon="-3.89379">
        <ele>6.39</ele>
        <time>2018-04-06T08:07:25Z</time>
      </trkpt>
      <trkpt lat="47.84999" lon="-3.89377">
        <ele>6.39</ele>
        <time>2018-04-06T08:07:26Z</time>
      </trkpt>
      <trkpt lat="47.85001" lon="-3.89375">
        <ele>6.39</ele>
        <time>2018-04-06T08:07:28Z</time>
      </trkpt>
      <trkpt lat="47.85002" lon="-3.89375">
        <ele>6.39</ele>
        <time>2018-04-06T08:07:30Z</time>
      </trkpt>
      <trkpt lat="47.85002" lon="-3.89377">
        <ele>5.91</ele>
        <time>2018-04-06T08:07:31Z</time>
      </trkpt>
      <trkpt lat="47.85003" lon="-3.89385">
        <ele>4.46</ele>
        <time>2018-04-06T08:07:36Z</time>
      </trkpt>
      <trkpt lat="47.85005" lon="-3.89396">
        <ele>2.54</ele>
        <time>2018-04-06T08:07:47Z</time>
      </trkpt>
      <trkpt lat="47.85007" lon="-3.89402">
        <ele>2.54</ele>
        <time>2018-04-06T08:07:50Z</time>
      </trkpt>
      <trkpt lat="47.85013" lon="-3.89412">
        <ele>3.98</ele>
        <time>2018-04-06T08:07:58Z</time>
      </trkpt>
      <trkpt lat="47.85019" lon="-3.89421">
        <ele>-0.82</ele>
        <time>2018-04-06T08:08:11Z</time>
      </trkpt>
      <trkpt lat="47.85021" lon="-3.89411">
        <ele>-9.48</ele>
        <time>2018-04-06T08:08:24Z</time>
      </trkpt>
      <trkpt lat="47.85031" lon="-3.89394">
        <ele>-15.24</ele>
        <time>2018-04-06T08:08:40Z</time>
      </trkpt>
      <trkpt lat="47.85041" lon="-3.89378">
        <ele>-15.72</ele>
        <time>2018-04-06T08:08:55Z</time>
      </trkpt>
      <trkpt lat="47.85052" lon="-3.89371">
        <ele>-12.84</ele>
        <time>2018-04-06T08:09:08Z</time>
      </trkpt>
      <trkpt lat="47.85061" lon="-3.89365">
        <ele>-13.32</ele>
        <time>2018-04-06T08:09:18Z</time>
      </trkpt>
      <trkpt lat="47.85064" lon="-3.8936">
        <ele>-13.32</ele>
        <time>2018-04-06T08:09:23Z</time>
      </trkpt>
      <trkpt lat="47.85079" lon="-3.89346">
        <ele>-11.4</ele>
        <time>2018-04-06T08:09:39Z</time>
      </trkpt>
      <trkpt lat="47.85086" lon="-3.89334">
        <ele>-10.44</ele>
        <time>2018-04-06T08:09:48Z</time>
      </trkpt>
      <trkpt lat="47.85095" lon="-3.89324">
        <ele>-11.4</ele>
        <time>2018-04-06T08:10:00Z</time>
      </trkpt>
      <trkpt lat="47.85107" lon="-3.89308">
        <ele>-12.36</ele>
        <time>2018-04-06T08:10:16Z</time>
      </trkpt>
      <trkpt lat="47.85112" lon="-3.89292">
        <ele>-10.92</ele>
        <time>2018-04-06T08:10:24Z</time>
      </trkpt>
      <trkpt lat="47.85113" lon="-3.8929">
        <ele>-10.92</ele>
        <time>2018-04-06T08:10:25Z</time>
      </trkpt>
      <trkpt lat="47.85115" lon="-3.89288">
        <ele>-10.92</ele>
        <time>2018-04-06T08:10:27Z</time>
      </trkpt>
      <trkpt lat="47.85126" lon="-3.89279">
        <ele>-8.03</ele>
        <time>2018-04-06T08:10:41Z</time>
      </trkpt>
      <trkpt lat="47.85128" lon="-3.89279">
        <ele>-5.15</ele>
        <time>2018-04-06T08:10:47Z</time>
      </trkpt>
      <trkpt lat="47.85129" lon="-3.89279">
        <ele>-4.67</ele>
        <time>2018-04-06T08:10:48Z</time>
      </trkpt>
      <trkpt lat="47.85132" lon="-3.89276">
        <ele>-4.19</ele>
        <time>2018-04-06T08:10:51Z</time>
      </trkpt>
      <trkpt lat="47.8514" lon="-3.89267">
        <ele>-2.75</ele>
        <time>2018-04-06T08:11:00Z</time>
      </trkpt>
      <trkpt lat="47.85141" lon="-3.89258">
        <ele>-5.15</ele>
        <time>2018-04-06T08:11:11Z</time>
      </trkpt>
      <trkpt lat="47.8514" lon="-3.89258">
        <ele>-6.59</ele>
        <time>2018-04-06T08:11:25Z</time>
      </trkpt>
      <trkpt lat="47.85141" lon="-3.89258">
        <ele>-7.55</ele>
        <time>2018-04-06T08:11:43Z</time>
      </trkpt>
      <trkpt lat="47.85151" lon="-3.89253">
        <ele>-5.63</ele>
        <time>2018-04-06T08:11:54Z</time>
      </trkpt>
      <trkpt lat="47.85152" lon="-3.89244">
        <ele>-6.59</ele>
        <time>2018-04-06T08:12:04Z</time>
      </trkpt>
      <trkpt lat="47.85151" lon="-3.89214">
        <ele>-9</ele>
        <time>2018-04-06T08:12:22Z</time>
      </trkpt>
      <trkpt lat="47.85158" lon="-3.89194">
        <ele>-10.44</ele>
        <time>2018-04-06T08:12:38Z</time>
      </trkpt>
      <trkpt lat="47.85161" lon="-3.89186">
        <ele>-9</ele>
        <time>2018-04-06T08:12:51Z</time>
      </trkpt>
      <trkpt lat="47.85177" lon="-3.89157">
        <ele>-7.07</ele>
        <time>2018-04-06T08:13:08Z</time>
      </trkpt>
      <trkpt lat="47.85183" lon="-3.89145">
        <ele>-2.75</ele>
        <time>2018-04-06T08:13:19Z</time>
      </trkpt>
      <trkpt lat="47.85189" lon="-3.89142">
        <ele>-0.82</ele>
        <time>2018-04-06T08:13:24Z</time>
      </trkpt>
      <trkpt lat="47.8519" lon="-3.89141">
        <ele>0.62</ele>
        <time>2018-04-06T08:13:25Z</time>
      </trkpt>
      <trkpt lat="47.85192" lon="-3.89141">
        <ele>1.58</ele>
        <time>2018-04-06T08:13:26Z</time>
      </trkpt>
      <trkpt lat="47.85197" lon="-3.89141">
        <ele>4.94</ele>
        <time>2018-04-06T08:13:29Z</time>
      </trkpt>
      <trkpt lat="47.85202" lon="-3.89144">
        <ele>6.87</ele>
        <time>2018-04-06T08:13:42Z</time>
      </trkpt>
      <trkpt lat="47.85204" lon="-3.89146">
        <ele>6.87</ele>
        <time>2018-04-06T08:13:50Z</time>
      </trkpt>
      <trkpt lat="47.85207" lon="-3.89154">
        <ele>7.35</ele>
        <time>2018-04-06T08:13:55Z</time>
      </trkpt>
      <trkpt lat="47.85208" lon="-3.89155">
        <ele>7.35</ele>
        <time>2018-04-06T08:13:56Z</time>
      </trkpt>
      <trkpt lat="47.85209" lon="-3.89156">
        <ele>6.87</ele>
        <time>2018-04-06T08:13:57Z</time>
      </trkpt>
      <trkpt lat="47.85226" lon="-3.8917">
        <ele>4.94</ele>
        <time>2018-04-06T08:14:15Z</time>
      </trkpt>
      <trkpt lat="47.85227" lon="-3.8917">
        <ele>4.94</ele>
        <time>2018-04-06T08:14:16Z</time>
      </trkpt>
      <trkpt lat="47.85229" lon="-3.8917">
        <ele>4.94</ele>
        <time>2018-04-06T08:14:18Z</time>
      </trkpt>
      <trkpt lat="47.8523" lon="-3.8917">
        <ele>4.94</ele>
        <time>2018-04-06T08:14:19Z</time>
      </trkpt>
      <trkpt lat="47.85232" lon="-3.8917">
        <ele>4.46</ele>
        <time>2018-04-06T08:14:20Z</time>
      </trkpt>
      <trkpt lat="47.85233" lon="-3.89171">
        <ele>4.94</ele>
        <time>2018-04-06T08:14:21Z</time>
      </trkpt>
      <trkpt lat="47.85234" lon="-3.89171">
        <ele>4.94</ele>
        <time>2018-04-06T08:14:22Z</time>
      </trkpt>
      <trkpt lat="47.85235" lon="-3.89172">
        <ele>4.94</ele>
        <time>2018-04-06T08:14:23Z</time>
      </trkpt>
      <trkpt lat="47.85236" lon="-3.89172">
        <ele>4.46</ele>
        <time>2018-04-06T08:14:24Z</time>
      </trkpt>
      <trkpt lat="47.85238" lon="-3.89172">
        <ele>4.46</ele>
        <time>2018-04-06T08:14:25Z</time>
      </trkpt>
      <trkpt lat="47.85239" lon="-3.89172">
        <ele>4.46</ele>
        <time>2018-04-06T08:14:26Z</time>
      </trkpt>
      <trkpt lat="47.8525" lon="-3.89172">
        <ele>3.98</ele>
        <time>2018-04-06T08:14:37Z</time>
      </trkpt>
      <trkpt lat="47.85251" lon="-3.89173">
        <ele>3.98</ele>
        <time>2018-04-06T08:14:38Z</time>
      </trkpt>
      <trkpt lat="47.85252" lon="-3.89175">
        <ele>3.98</ele>
        <time>2018-04-06T08:14:39Z</time>
      </trkpt>
      <trkpt lat="47.85253" lon="-3.89182">
        <ele>3.98</ele>
        <time>2018-04-06T08:14:44Z</time>
      </trkpt>
      <trkpt lat="47.85248" lon="-3.89211">
        <ele>1.1</ele>
        <time>2018-04-06T08:15:01Z</time>
      </trkpt>
      <trkpt lat="47.85249" lon="-3.89218">
        <ele>-0.82</ele>
        <time>2018-04-06T08:15:22Z</time>
      </trkpt>
      <trkpt lat="47.8525" lon="-3.89219">
        <ele>-0.34</ele>
        <time>2018-04-06T08:15:23Z</time>
      </trkpt>
      <trkpt lat="47.85252" lon="-3.89219">
        <ele>-0.34</ele>
        <time>2018-04-06T08:15:24Z</time>
      </trkpt>
      <trkpt lat="47.85253" lon="-3.8922">
        <ele>-0.34</ele>
        <time>2018-04-06T08:15:25Z</time>
      </trkpt>
      <trkpt lat="47.85255" lon="-3.89221">
        <ele>0.62</ele>
        <time>2018-04-06T08:15:27Z</time>
      </trkpt>
      <trkpt lat="47.85256" lon="-3.89222">
        <ele>0.62</ele>
        <time>2018-04-06T08:15:28Z</time>
      </trkpt>
      <trkpt lat="47.85257" lon="-3.89223">
        <ele>0.62</ele>
        <time>2018-04-06T08:15:29Z</time>
      </trkpt>
      <trkpt lat="47.85259" lon="-3.89223">
        <ele>1.1</ele>
        <time>2018-04-06T08:15:30Z</time>
      </trkpt>
      <trkpt lat="47.8526" lon="-3.89223">
        <ele>1.1</ele>
        <time>2018-04-06T08:15:31Z</time>
      </trkpt>
      <trkpt lat="47.85275" lon="-3.89213">
        <ele>3.98</ele>
        <time>2018-04-06T08:15:47Z</time>
      </trkpt>
      <trkpt lat="47.85279" lon="-3.89205">
        <ele>3.5</ele>
        <time>2018-04-06T08:15:52Z</time>
      </trkpt>
      <trkpt lat="47.85283" lon="-3.89199">
        <ele>3.02</ele>
        <time>2018-04-06T08:15:59Z</time>
      </trkpt>
      <trkpt lat="47.85284" lon="-3.89197">
        <ele>3.02</ele>
        <time>2018-04-06T08:16:00Z</time>
      </trkpt>
      <trkpt lat="47.85285" lon="-3.89196">
        <ele>3.02</ele>
        <time>2018-04-06T08:16:01Z</time>
      </trkpt>
      <trkpt lat="47.85286" lon="-3.89194">
        <ele>3.02</ele>
        <time>2018-04-06T08:16:02Z</time>
      </trkpt>
      <trkpt lat="47.85296" lon="-3.89186">
        <ele>2.06</ele>
        <time>2018-04-06T08:16:14Z</time>
      </trkpt>
      <trkpt lat="47.85297" lon="-3.89185">
        <ele>1.58</ele>
        <time>2018-04-06T08:16:15Z</time>
      </trkpt>
      <trkpt lat="47.85299" lon="-3.89183">
        <ele>2.06</ele>
        <time>2018-04-06T08:16:18Z</time>
      </trkpt>
      <trkpt lat="47.853" lon="-3.89182">
        <ele>2.54</ele>
        <time>2018-04-06T08:16:19Z</time>
      </trkpt>
      <trkpt lat="47.85307" lon="-3.89175">
        <ele>2.54</ele>
        <time>2018-04-06T08:16:27Z</time>
      </trkpt>
      <trkpt lat="47.85308" lon="-3.89172">
        <ele>0.62</ele>
        <time>2018-04-06T08:16:38Z</time>
      </trkpt>
      <trkpt lat="47.8531" lon="-3.89162">
        <ele>2.54</ele>
        <time>2018-04-06T08:16:53Z</time>
      </trkpt>
      <trkpt lat="47.85311" lon="-3.89158">
        <ele>3.02</ele>
        <time>2018-04-06T08:16:55Z</time>
      </trkpt>
      <trkpt lat="47.85317" lon="-3.89155">
        <ele>3.5</ele>
        <time>2018-04-06T08:17:00Z</time>
      </trkpt>
      <trkpt lat="47.85329" lon="-3.89145">
        <ele>1.1</ele>
        <time>2018-04-06T08:17:17Z</time>
      </trkpt>
      <trkpt lat="47.85319" lon="-3.89112">
        <ele>0.62</ele>
        <time>2018-04-06T08:17:36Z</time>
      </trkpt>
      <trkpt lat="47.85302" lon="-3.89104">
        <ele>-0.34</ele>
        <time>2018-04-06T08:17:52Z</time>
      </trkpt>
      <trkpt lat="47.85287" lon="-3.89096">
        <ele>-0.82</ele>
        <time>2018-04-06T08:18:08Z</time>
      </trkpt>
      <trkpt lat="47.85272" lon="-3.8908">
        <ele>-1.3</ele>
        <time>2018-04-06T08:18:25Z</time>
      </trkpt>
      <trkpt lat="47.85249" lon="-3.8906">
        <ele>-3.23</ele>
        <time>2018-04-06T08:18:44Z</time>
      </trkpt>
      <trkpt lat="47.85239" lon="-3.89059">
        <ele>-1.3</ele>
        <time>2018-04-06T08:18:59Z</time>
      </trkpt>
      <trkpt lat="47.85232" lon="-3.89045">
        <ele>-0.82</ele>
        <time>2018-04-06T08:19:13Z</time>
      </trkpt>
      <trkpt lat="47.85216" lon="-3.89022">
        <ele>-1.79</ele>
        <time>2018-04-06T08:19:31Z</time>
      </trkpt>
      <trkpt lat="47.85206" lon="-3.89005">
        <ele>-3.23</ele>
        <time>2018-04-06T08:19:46Z</time>
      </trkpt>
      <trkpt lat="47.85193" lon="-3.88984">
        <ele>-3.23</ele>
        <time>2018-04-06T08:20:04Z</time>
      </trkpt>
      <trkpt lat="47.85185" lon="-3.8897">
        <ele>-2.75</ele>
        <time>2018-04-06T08:20:12Z</time>
      </trkpt>
      <trkpt lat="47.85185" lon="-3.88968">
        <ele>-2.75</ele>
        <time>2018-04-06T08:20:13Z</time>
      </trkpt>
      <trkpt lat="47.85184" lon="-3.88951">
        <ele>1.1</ele>
        <time>2018-04-06T08:20:26Z</time>
      </trkpt>
      <trkpt lat="47.85184" lon="-3.88944">
        <ele>3.02</ele>
        <time>2018-04-06T08:20:35Z</time>
      </trkpt>
      <trkpt lat="47.85191" lon="-3.88934">
        <ele>2.06</ele>
        <time>2018-04-06T08:20:42Z</time>
      </trkpt>
      <trkpt lat="47.85203" lon="-3.88915">
        <ele>0.14</ele>
        <time>2018-04-06T08:20:59Z</time>
      </trkpt>
      <trkpt lat="47.85207" lon="-3.88907">
        <ele>0.62</ele>
        <time>2018-04-06T08:21:05Z</time>
      </trkpt>
      <trkpt lat="47.85219" lon="-3.88879">
        <ele>2.54</ele>
        <time>2018-04-06T08:21:25Z</time>
      </trkpt>
      <trkpt lat="47.85231" lon="-3.88853">
        <ele>3.98</ele>
        <time>2018-04-06T08:21:43Z</time>
      </trkpt>
      <trkpt lat="47.85237" lon="-3.8883">
        <ele>4.94</ele>
        <time>2018-04-06T08:21:58Z</time>
      </trkpt>
      <trkpt lat="47.85236" lon="-3.88828">
        <ele>4.94</ele>
        <time>2018-04-06T08:21:59Z</time>
      </trkpt>
      <trkpt lat="47.85236" lon="-3.88826">
        <ele>4.94</ele>
        <time>2018-04-06T08:22:00Z</time>
      </trkpt>
      <trkpt lat="47.85238" lon="-3.88809">
        <ele>4.94</ele>
        <time>2018-04-06T08:22:10Z</time>
      </trkpt>
      <trkpt lat="47.8524" lon="-3.88784">
        <ele>5.42</ele>
        <time>2018-04-06T08:22:26Z</time>
      </trkpt>
      <trkpt lat="47.85253" lon="-3.88772">
        <ele>5.42</ele>
        <time>2018-04-06T08:22:41Z</time>
      </trkpt>
      <trkpt lat="47.85272" lon="-3.88775">
        <ele>3.02</ele>
        <time>2018-04-06T08:23:01Z</time>
      </trkpt>
      <trkpt lat="47.85293" lon="-3.88766">
        <ele>0.62</ele>
        <time>2018-04-06T08:23:19Z</time>
      </trkpt>
      <trkpt lat="47.85302" lon="-3.88769">
        <ele>-1.3</ele>
        <time>2018-04-06T08:23:33Z</time>
      </trkpt>
      <trkpt lat="47.85328" lon="-3.88768">
        <ele>-3.23</ele>
        <time>2018-04-06T08:23:54Z</time>
      </trkpt>
      <trkpt lat="47.85346" lon="-3.88766">
        <ele>-4.67</ele>
        <time>2018-04-06T08:24:12Z</time>
      </trkpt>
      <trkpt lat="47.85363" lon="-3.88753">
        <ele>-6.59</ele>
        <time>2018-04-06T08:24:31Z</time>
      </trkpt>
      <trkpt lat="47.85376" lon="-3.8874">
        <ele>-6.59</ele>
        <time>2018-04-06T08:24:50Z</time>
      </trkpt>
      <trkpt lat="47.85384" lon="-3.88762">
        <ele>-3.71</ele>
        <time>2018-04-06T08:25:05Z</time>
      </trkpt>
      <trkpt lat="47.85398" lon="-3.88771">
        <ele>-4.67</ele>
        <time>2018-04-06T08:25:21Z</time>
      </trkpt>
      <trkpt lat="47.85416" lon="-3.88781">
        <ele>-1.79</ele>
        <time>2018-04-06T08:25:37Z</time>
      </trkpt>
      <trkpt lat="47.85437" lon="-3.88787">
        <ele>-1.79</ele>
        <time>2018-04-06T08:25:55Z</time>
      </trkpt>
      <trkpt lat="47.85449" lon="-3.88797">
        <ele>-1.3</ele>
        <time>2018-04-06T08:26:08Z</time>
      </trkpt>
      <trkpt lat="47.85467" lon="-3.88792">
        <ele>-1.79</ele>
        <time>2018-04-06T08:26:25Z</time>
      </trkpt>
      <trkpt lat="47.85473" lon="-3.88775">
        <ele>-1.79</ele>
        <time>2018-04-06T08:26:37Z</time>
      </trkpt>
      <trkpt lat="47.85488" lon="-3.88773">
        <ele>-2.27</ele>
        <time>2018-04-06T08:26:53Z</time>
      </trkpt>
      <trkpt lat="47.85495" lon="-3.88754">
        <ele>-6.11</ele>
        <time>2018-04-06T08:27:09Z</time>
      </trkpt>
      <trkpt lat="47.85503" lon="-3.88731">
        <ele>-6.11</ele>
        <time>2018-04-06T08:27:25Z</time>
      </trkpt>
      <trkpt lat="47.85504" lon="-3.88711">
        <ele>-4.67</ele>
        <time>2018-04-06T08:27:42Z</time>
      </trkpt>
      <trkpt lat="47.85498" lon="-3.88686">
        <ele>-7.55</ele>
        <time>2018-04-06T08:28:00Z</time>
      </trkpt>
      <trkpt lat="47.85507" lon="-3.88663">
        <ele>-7.55</ele>
        <time>2018-04-06T08:28:19Z</time>
      </trkpt>
      <trkpt lat="47.85524" lon="-3.88663">
        <ele>0.14</ele>
        <time>2018-04-06T08:28:35Z</time>
      </trkpt>
      <trkpt lat="47.85537" lon="-3.8866">
        <ele>3.5</ele>
        <time>2018-04-06T08:28:47Z</time>
      </trkpt>
      <trkpt lat="47.85547" lon="-3.88652">
        <ele>4.46</ele>
        <time>2018-04-06T08:28:56Z</time>
      </trkpt>
      <trkpt lat="47.85558" lon="-3.88642">
        <ele>3.98</ele>
        <time>2018-04-06T08:29:08Z</time>
      </trkpt>
      <trkpt lat="47.85575" lon="-3.88636">
        <ele>5.42</ele>
        <time>2018-04-06T08:29:24Z</time>
      </trkpt>
      <trkpt lat="47.85581" lon="-3.8864">
        <ele>5.91</ele>
        <time>2018-04-06T08:29:30Z</time>
      </trkpt>
      <trkpt lat="47.85598" lon="-3.88646">
        <ele>4.94</ele>
        <time>2018-04-06T08:29:48Z</time>
      </trkpt>
      <trkpt lat="47.85605" lon="-3.88643">
        <ele>3.02</ele>
        <time>2018-04-06T08:29:56Z</time>
      </trkpt>
      <trkpt lat="47.85608" lon="-3.88638">
        <ele>2.54</ele>
        <time>2018-04-06T08:30:00Z</time>
      </trkpt>
      <trkpt lat="47.85609" lon="-3.88615">
        <ele>-1.79</ele>
        <time>2018-04-06T08:30:17Z</time>
      </trkpt>
      <trkpt lat="47.85624" lon="-3.88582">
        <ele>-6.11</ele>
        <time>2018-04-06T08:30:40Z</time>
      </trkpt>
      <trkpt lat="47.85637" lon="-3.8856">
        <ele>-11.4</ele>
        <time>2018-04-06T08:30:59Z</time>
      </trkpt>
      <trkpt lat="47.85656" lon="-3.88558">
        <ele>-13.8</ele>
        <time>2018-04-06T08:31:19Z</time>
      </trkpt>
      <trkpt lat="47.85669" lon="-3.88585">
        <ele>-10.92</ele>
        <time>2018-04-06T08:31:36Z</time>
      </trkpt>
      <trkpt lat="47.85683" lon="-3.88583">
        <ele>-8.03</ele>
        <time>2018-04-06T08:31:51Z</time>
      </trkpt>
      <trkpt lat="47.85704" lon="-3.88583">
        <ele>-6.11</ele>
        <time>2018-04-06T08:32:10Z</time>
      </trkpt>
      <trkpt lat="47.85713" lon="-3.88598">
        <ele>-6.11</ele>
        <time>2018-04-06T08:32:27Z</time>
      </trkpt>
      <trkpt lat="47.85714" lon="-3.88606">
        <ele>-4.67</ele>
        <time>2018-04-06T08:32:46Z</time>
      </trkpt>
      <trkpt lat="47.85718" lon="-3.88618">
        <ele>-3.23</ele>
        <time>2018-04-06T08:33:04Z</time>
      </trkpt>
      <trkpt lat="47.85722" lon="-3.88626">
        <ele>-3.23</ele>
        <time>2018-04-06T08:33:14Z</time>
      </trkpt>
      <trkpt lat="47.85723" lon="-3.88628">
        <ele>-3.23</ele>
        <time>2018-04-06T08:33:16Z</time>
      </trkpt>
      <trkpt lat="47.85732" lon="-3.88644">
        <ele>-2.75</ele>
        <time>2018-04-06T08:33:30Z</time>
      </trkpt>
      <trkpt lat="47.85737" lon="-3.8866">
        <ele>-1.3</ele>
        <time>2018-04-06T08:33:44Z</time>
      </trkpt>
      <trkpt lat="47.85744" lon="-3.88674">
        <ele>-2.75</ele>
        <time>2018-04-06T08:33:59Z</time>
      </trkpt>
      <trkpt lat="47.85753" lon="-3.88684">
        <ele>-4.19</ele>
        <time>2018-04-06T08:34:13Z</time>
      </trkpt>
      <trkpt lat="47.85751" lon="-3.88694">
        <ele>-1.79</ele>
        <time>2018-04-06T08:34:30Z</time>
      </trkpt>
      <trkpt lat="47.85738" lon="-3.88707">
        <ele>-7.55</ele>
        <time>2018-04-06T08:34:47Z</time>
      </trkpt>
      <trkpt lat="47.85717" lon="-3.88721">
        <ele>-10.44</ele>
        <time>2018-04-06T08:35:05Z</time>
      </trkpt>
      <trkpt lat="47.85696" lon="-3.88726">
        <ele>-16.21</ele>
        <time>2018-04-06T08:35:25Z</time>
      </trkpt>
      <trkpt lat="47.85684" lon="-3.887">
        <ele>-9</ele>
        <time>2018-04-06T08:35:46Z</time>
      </trkpt>
      <trkpt lat="47.85685" lon="-3.88695">
        <ele>-4.67</ele>
        <time>2018-04-06T08:36:01Z</time>
      </trkpt>
      <trkpt lat="47.85681" lon="-3.88702">
        <ele>-4.67</ele>
        <time>2018-04-06T08:36:22Z</time>
      </trkpt>
      <trkpt lat="47.85666" lon="-3.88691">
        <ele>-2.75</ele>
        <time>2018-04-06T08:36:42Z</time>
      </trkpt>
      <trkpt lat="47.85652" lon="-3.88692">
        <ele>-5.63</ele>
        <time>2018-04-06T08:36:59Z</time>
      </trkpt>
      <trkpt lat="47.85649" lon="-3.88691">
        <ele>-6.59</ele>
        <time>2018-04-06T08:37:03Z</time>
      </trkpt>
      <trkpt lat="47.8564" lon="-3.88707">
        <ele>-8.03</ele>
        <time>2018-04-06T08:37:17Z</time>
      </trkpt>
      <trkpt lat="47.85628" lon="-3.88725">
        <ele>-8.51</ele>
        <time>2018-04-06T08:37:31Z</time>
      </trkpt>
      <trkpt lat="47.85615" lon="-3.8874">
        <ele>-11.88</ele>
        <time>2018-04-06T08:37:48Z</time>
      </trkpt>
      <trkpt lat="47.85604" lon="-3.88743">
        <ele>-9.96</ele>
        <time>2018-04-06T08:37:57Z</time>
      </trkpt>
      <trkpt lat="47.85594" lon="-3.88751">
        <ele>-12.84</ele>
        <time>2018-04-06T08:38:08Z</time>
      </trkpt>
      <trkpt lat="47.8558" lon="-3.88779">
        <ele>-13.32</ele>
        <time>2018-04-06T08:38:27Z</time>
      </trkpt>
      <trkpt lat="47.85558" lon="-3.88801">
        <ele>-14.28</ele>
        <time>2018-04-06T08:38:49Z</time>
      </trkpt>
      <trkpt lat="47.85547" lon="-3.8883">
        <ele>-11.4</ele>
        <time>2018-04-06T08:39:09Z</time>
      </trkpt>
      <trkpt lat="47.85546" lon="-3.88864">
        <ele>-8.51</ele>
        <time>2018-04-06T08:39:30Z</time>
      </trkpt>
      <trkpt lat="47.8554" lon="-3.88883">
        <ele>0.14</ele>
        <time>2018-04-06T08:39:41Z</time>
      </trkpt>
      <trkpt lat="47.85535" lon="-3.88905">
        <ele>0.14</ele>
        <time>2018-04-06T08:39:54Z</time>
      </trkpt>
      <trkpt lat="47.85537" lon="-3.88936">
        <ele>0.62</ele>
        <time>2018-04-06T08:40:12Z</time>
      </trkpt>
      <trkpt lat="47.85533" lon="-3.8895">
        <ele>0.14</ele>
        <time>2018-04-06T08:40:20Z</time>
      </trkpt>
      <trkpt lat="47.8553" lon="-3.88958">
        <ele>1.1</ele>
        <time>2018-04-06T08:40:25Z</time>
      </trkpt>
      <trkpt lat="47.85527" lon="-3.88964">
        <ele>1.1</ele>
        <time>2018-04-06T08:40:29Z</time>
      </trkpt>
      <trkpt lat="47.85516" lon="-3.88972">
        <ele>3.5</ele>
        <time>2018-04-06T08:40:45Z</time>
      </trkpt>
      <trkpt lat="47.85515" lon="-3.88973">
        <ele>3.5</ele>
        <time>2018-04-06T08:40:47Z</time>
      </trkpt>
      <trkpt lat="47.85516" lon="-3.88974">
        <ele>3.5</ele>
        <time>2018-04-06T08:40:49Z</time>
      </trkpt>
      <trkpt lat="47.85511" lon="-3.88977">
        <ele>3.5</ele>
        <time>2018-04-06T08:40:54Z</time>
      </trkpt>
      <trkpt lat="47.85503" lon="-3.8899">
        <ele>3.5</ele>
        <time>2018-04-06T08:41:06Z</time>
      </trkpt>
      <trkpt lat="47.85501" lon="-3.88992">
        <ele>3.02</ele>
        <time>2018-04-06T08:41:08Z</time>
      </trkpt>
      <trkpt lat="47.85496" lon="-3.88999">
        <ele>2.54</ele>
        <time>2018-04-06T08:41:14Z</time>
      </trkpt>
      <trkpt lat="47.85491" lon="-3.89003">
        <ele>2.54</ele>
        <time>2018-04-06T08:41:29Z</time>
      </trkpt>
      <trkpt lat="47.85482" lon="-3.89016">
        <ele>1.58</ele>
        <time>2018-04-06T08:41:40Z</time>
      </trkpt>
      <trkpt lat="47.85474" lon="-3.89037">
        <ele>2.54</ele>
        <time>2018-04-06T08:41:53Z</time>
      </trkpt>
      <trkpt lat="47.85474" lon="-3.89041">
        <ele>2.06</ele>
        <time>2018-04-06T08:41:55Z</time>
      </trkpt>
      <trkpt lat="47.85472" lon="-3.89063">
        <ele>3.5</ele>
        <time>2018-04-06T08:42:13Z</time>
      </trkpt>
      <trkpt lat="47.85472" lon="-3.89066">
        <ele>3.5</ele>
        <time>2018-04-06T08:42:29Z</time>
      </trkpt>
      <trkpt lat="47.85473" lon="-3.89077">
        <ele>4.94</ele>
        <time>2018-04-06T08:42:35Z</time>
      </trkpt>
      <trkpt lat="47.85474" lon="-3.891">
        <ele>1.58</ele>
        <time>2018-04-06T08:42:50Z</time>
      </trkpt>
      <trkpt lat="47.85477" lon="-3.89111">
        <ele>1.58</ele>
        <time>2018-04-06T08:42:58Z</time>
      </trkpt>
      <trkpt lat="47.85474" lon="-3.89117">
        <ele>0.62</ele>
        <time>2018-04-06T08:43:01Z</time>
      </trkpt>
      <trkpt lat="47.85458" lon="-3.89129">
        <ele>0.62</ele>
        <time>2018-04-06T08:43:18Z</time>
      </trkpt>
      <trkpt lat="47.85441" lon="-3.8913">
        <ele>0.62</ele>
        <time>2018-04-06T08:43:34Z</time>
      </trkpt>
      <trkpt lat="47.85434" lon="-3.8915">
        <ele>0.62</ele>
        <time>2018-04-06T08:43:48Z</time>
      </trkpt>
      <trkpt lat="47.85434" lon="-3.89152">
        <ele>1.1</ele>
        <time>2018-04-06T08:43:49Z</time>
      </trkpt>
      <trkpt lat="47.85427" lon="-3.89176">
        <ele>1.1</ele>
        <time>2018-04-06T08:44:06Z</time>
      </trkpt>
      <trkpt lat="47.85423" lon="-3.89189">
        <ele>1.1</ele>
        <time>2018-04-06T08:44:20Z</time>
      </trkpt>
      <trkpt lat="47.85417" lon="-3.89197">
        <ele>2.54</ele>
        <time>2018-04-06T08:44:40Z</time>
      </trkpt>
      <trkpt lat="47.85419" lon="-3.89205">
        <ele>2.54</ele>
        <time>2018-04-06T08:44:45Z</time>
      </trkpt>
      <trkpt lat="47.85424" lon="-3.8922">
        <ele>-1.3</ele>
        <time>2018-04-06T08:44:58Z</time>
      </trkpt>
      <trkpt lat="47.85419" lon="-3.89223">
        <ele>-2.75</ele>
        <time>2018-04-06T08:45:02Z</time>
      </trkpt>
      <trkpt lat="47.8541" lon="-3.89248">
        <ele>-7.07</ele>
        <time>2018-04-06T08:45:19Z</time>
      </trkpt>
      <trkpt lat="47.85396" lon="-3.89267">
        <ele>-9.48</ele>
        <time>2018-04-06T08:45:37Z</time>
      </trkpt>
      <trkpt lat="47.85386" lon="-3.89268">
        <ele>-10.92</ele>
        <time>2018-04-06T08:45:46Z</time>
      </trkpt>
      <trkpt lat="47.8538" lon="-3.89272">
        <ele>-8.03</ele>
        <time>2018-04-06T08:45:50Z</time>
      </trkpt>
      <trkpt lat="47.85369" lon="-3.89282">
        <ele>-4.19</ele>
        <time>2018-04-06T08:46:04Z</time>
      </trkpt>
      <trkpt lat="47.85368" lon="-3.89282">
        <ele>-4.19</ele>
        <time>2018-04-06T08:46:05Z</time>
      </trkpt>
      <trkpt lat="47.85353" lon="-3.89291">
        <ele>-2.27</ele>
        <time>2018-04-06T08:46:19Z</time>
      </trkpt>
      <trkpt lat="47.85335" lon="-3.89292">
        <ele>-1.3</ele>
        <time>2018-04-06T08:46:34Z</time>
      </trkpt>
      <trkpt lat="47.85323" lon="-3.89285">
        <ele>0.62</ele>
        <time>2018-04-06T08:46:48Z</time>
      </trkpt>
      <trkpt lat="47.85305" lon="-3.89275">
        <ele>-0.82</ele>
        <time>2018-04-06T08:47:03Z</time>
      </trkpt>
      <trkpt lat="47.85298" lon="-3.89257">
        <ele>-2.75</ele>
        <time>2018-04-06T08:47:19Z</time>
      </trkpt>
      <trkpt lat="47.85297" lon="-3.89261">
        <ele>-2.27</ele>
        <time>2018-04-06T08:47:34Z</time>
      </trkpt>
      <trkpt lat="47.85296" lon="-3.89263">
        <ele>-1.3</ele>
        <time>2018-04-06T08:47:49Z</time>
      </trkpt>
      <trkpt lat="47.85297" lon="-3.89258">
        <ele>-2.75</ele>
        <time>2018-04-06T08:48:03Z</time>
      </trkpt>
      <trkpt lat="47.85296" lon="-3.89259">
        <ele>-2.75</ele>
        <time>2018-04-06T08:48:20Z</time>
      </trkpt>
      <trkpt lat="47.85293" lon="-3.89257">
        <ele>-2.27</ele>
        <time>2018-04-06T08:48:33Z</time>
      </trkpt>
      <trkpt lat="47.85292" lon="-3.89257">
        <ele>-3.23</ele>
        <time>2018-04-06T08:48:49Z</time>
      </trkpt>
      <trkpt lat="47.85291" lon="-3.89259">
        <ele>-1.79</ele>
        <time>2018-04-06T08:49:17Z</time>
      </trkpt>
      <trkpt lat="47.85292" lon="-3.8926">
        <ele>0.62</ele>
        <time>2018-04-06T08:49:30Z</time>
      </trkpt>
      <trkpt lat="47.85294" lon="-3.89263">
        <ele>0.14</ele>
        <time>2018-04-06T08:49:45Z</time>
      </trkpt>
      <trkpt lat="47.85296" lon="-3.89261">
        <ele>0.14</ele>
        <time>2018-04-06T08:50:09Z</time>
      </trkpt>
      <trkpt lat="47.853" lon="-3.89259">
        <ele>-1.3</ele>
        <time>2018-04-06T08:50:26Z</time>
      </trkpt>
      <trkpt lat="47.85299" lon="-3.89261">
        <ele>0.62</ele>
        <time>2018-04-06T08:50:51Z</time>
      </trkpt>
      <trkpt lat="47.85299" lon="-3.89261">
        <ele>-1.3</ele>
        <time>2018-04-06T08:51:16Z</time>
      </trkpt>
      <trkpt lat="47.85298" lon="-3.89262">
        <ele>1.58</ele>
        <time>2018-04-06T08:51:47Z</time>
      </trkpt>
      <trkpt lat="47.85298" lon="-3.8926">
        <ele>1.1</ele>
        <time>2018-04-06T08:52:06Z</time>
      </trkpt>
      <trkpt lat="47.85296" lon="-3.8926">
        <ele>0.62</ele>
        <time>2018-04-06T08:52:29Z</time>
      </trkpt>
      <trkpt lat="47.85296" lon="-3.89259">
        <ele>-0.34</ele>
        <time>2018-04-06T08:52:49Z</time>
      </trkpt>
      <trkpt lat="47.85297" lon="-3.89256">
        <ele>-1.3</ele>
        <time>2018-04-06T08:53:01Z</time>
      </trkpt>
      <trkpt lat="47.85299" lon="-3.89262">
        <ele>-0.34</ele>
        <time>2018-04-06T08:53:14Z</time>
      </trkpt>
      <trkpt lat="47.853" lon="-3.89264">
        <ele>0.14</ele>
        <time>2018-04-06T08:53:33Z</time>
      </trkpt>
      <trkpt lat="47.85304" lon="-3.89276">
        <ele>0.14</ele>
        <time>2018-04-06T08:53:45Z</time>
      </trkpt>
      <trkpt lat="47.85313" lon="-3.8928">
        <ele>-0.34</ele>
        <time>2018-04-06T08:53:58Z</time>
      </trkpt>
      <trkpt lat="47.85317" lon="-3.89281">
        <ele>0.14</ele>
        <time>2018-04-06T08:54:29Z</time>
      </trkpt>
      <trkpt lat="47.85321" lon="-3.89284">
        <ele>-4.67</ele>
        <time>2018-04-06T08:54:46Z</time>
      </trkpt>
      <trkpt lat="47.85346" lon="-3.89295">
        <ele>-18.61</ele>
        <time>2018-04-06T08:55:09Z</time>
      </trkpt>
      <trkpt lat="47.85367" lon="-3.89284">
        <ele>-21.49</ele>
        <time>2018-04-06T08:55:25Z</time>
      </trkpt>
      <trkpt lat="47.85392" lon="-3.89271">
        <ele>-20.53</ele>
        <time>2018-04-06T08:55:46Z</time>
      </trkpt>
      <trkpt lat="47.85403" lon="-3.89267">
        <ele>-19.57</ele>
        <time>2018-04-06T08:55:54Z</time>
      </trkpt>
      <trkpt lat="47.85413" lon="-3.89246">
        <ele>-17.65</ele>
        <time>2018-04-06T08:56:09Z</time>
      </trkpt>
      <trkpt lat="47.85419" lon="-3.89229">
        <ele>-17.65</ele>
        <time>2018-04-06T08:56:24Z</time>
      </trkpt>
      <trkpt lat="47.85423" lon="-3.89202">
        <ele>-15.72</ele>
        <time>2018-04-06T08:56:43Z</time>
      </trkpt>
      <trkpt lat="47.85431" lon="-3.89167">
        <ele>-15.72</ele>
        <time>2018-04-06T08:57:06Z</time>
      </trkpt>
      <trkpt lat="47.85441" lon="-3.89139">
        <ele>-13.8</ele>
        <time>2018-04-06T08:57:25Z</time>
      </trkpt>
      <trkpt lat="47.85457" lon="-3.89131">
        <ele>-7.55</ele>
        <time>2018-04-06T08:57:44Z</time>
      </trkpt>
      <trkpt lat="47.8547" lon="-3.89129">
        <ele>-6.59</ele>
        <time>2018-04-06T08:58:04Z</time>
      </trkpt>
      <trkpt lat="47.85473" lon="-3.8912">
        <ele>-6.11</ele>
        <time>2018-04-06T08:58:16Z</time>
      </trkpt>
      <trkpt lat="47.85474" lon="-3.89114">
        <ele>-5.63</ele>
        <time>2018-04-06T08:58:20Z</time>
      </trkpt>
      <trkpt lat="47.85474" lon="-3.8909">
        <ele>-5.15</ele>
        <time>2018-04-06T08:58:37Z</time>
      </trkpt>
      <trkpt lat="47.85474" lon="-3.8908">
        <ele>-5.15</ele>
        <time>2018-04-06T08:58:43Z</time>
      </trkpt>
      <trkpt lat="47.85475" lon="-3.89054">
        <ele>-4.19</ele>
        <time>2018-04-06T08:58:58Z</time>
      </trkpt>
      <trkpt lat="47.85478" lon="-3.89027">
        <ele>-5.63</ele>
        <time>2018-04-06T08:59:15Z</time>
      </trkpt>
      <trkpt lat="47.85478" lon="-3.89022">
        <ele>-6.11</ele>
        <time>2018-04-06T08:59:18Z</time>
      </trkpt>
      <trkpt lat="47.85482" lon="-3.89013">
        <ele>-6.59</ele>
        <time>2018-04-06T08:59:25Z</time>
      </trkpt>
      <trkpt lat="47.85497" lon="-3.88994">
        <ele>-4.67</ele>
        <time>2018-04-06T08:59:41Z</time>
      </trkpt>
      <trkpt lat="47.85497" lon="-3.88993">
        <ele>-4.67</ele>
        <time>2018-04-06T08:59:42Z</time>
      </trkpt>
      <trkpt lat="47.85505" lon="-3.88972">
        <ele>-8.03</ele>
        <time>2018-04-06T08:59:59Z</time>
      </trkpt>
      <trkpt lat="47.85525" lon="-3.8896">
        <ele>-6.59</ele>
        <time>2018-04-06T09:00:13Z</time>
      </trkpt>
      <trkpt lat="47.85533" lon="-3.88938">
        <ele>-9.48</ele>
        <time>2018-04-06T09:00:27Z</time>
      </trkpt>
      <trkpt lat="47.85533" lon="-3.88928">
        <ele>-9.48</ele>
        <time>2018-04-06T09:00:33Z</time>
      </trkpt>
      <trkpt lat="47.85539" lon="-3.88896">
        <ele>-6.59</ele>
        <time>2018-04-06T09:00:52Z</time>
      </trkpt>
      <trkpt lat="47.85547" lon="-3.88863">
        <ele>-1.79</ele>
        <time>2018-04-06T09:01:10Z</time>
      </trkpt>
      <trkpt lat="47.8555" lon="-3.8884">
        <ele>-4.19</ele>
        <time>2018-04-06T09:01:25Z</time>
      </trkpt>
      <trkpt lat="47.85556" lon="-3.8881">
        <ele>-8.51</ele>
        <time>2018-04-06T09:01:43Z</time>
      </trkpt>
      <trkpt lat="47.85571" lon="-3.8879">
        <ele>-6.59</ele>
        <time>2018-04-06T09:01:57Z</time>
      </trkpt>
      <trkpt lat="47.85589" lon="-3.88775">
        <ele>-5.63</ele>
        <time>2018-04-06T09:02:14Z</time>
      </trkpt>
      <trkpt lat="47.85598" lon="-3.88751">
        <ele>-7.55</ele>
        <time>2018-04-06T09:02:31Z</time>
      </trkpt>
      <trkpt lat="47.85613" lon="-3.88744">
        <ele>-6.11</ele>
        <time>2018-04-06T09:02:46Z</time>
      </trkpt>
      <trkpt lat="47.85626" lon="-3.88725">
        <ele>-9</ele>
        <time>2018-04-06T09:03:02Z</time>
      </trkpt>
      <trkpt lat="47.85641" lon="-3.88714">
        <ele>-10.44</ele>
        <time>2018-04-06T09:03:14Z</time>
      </trkpt>
      <trkpt lat="47.85642" lon="-3.88707">
        <ele>-11.4</ele>
        <time>2018-04-06T09:03:18Z</time>
      </trkpt>
      <trkpt lat="47.85655" lon="-3.88695">
        <ele>-13.8</ele>
        <time>2018-04-06T09:03:34Z</time>
      </trkpt>
      <trkpt lat="47.85668" lon="-3.88693">
        <ele>-13.32</ele>
        <time>2018-04-06T09:03:48Z</time>
      </trkpt>
      <trkpt lat="47.85671" lon="-3.88692">
        <ele>-9.48</ele>
        <time>2018-04-06T09:04:08Z</time>
      </trkpt>
      <trkpt lat="47.85683" lon="-3.88704">
        <ele>-5.15</ele>
        <time>2018-04-06T09:04:24Z</time>
      </trkpt>
      <trkpt lat="47.85688" lon="-3.88712">
        <ele>1.1</ele>
        <time>2018-04-06T09:04:44Z</time>
      </trkpt>
      <trkpt lat="47.85693" lon="-3.88709">
        <ele>-0.34</ele>
        <time>2018-04-06T09:05:07Z</time>
      </trkpt>
      <trkpt lat="47.85699" lon="-3.8871">
        <ele>-0.34</ele>
        <time>2018-04-06T09:05:39Z</time>
      </trkpt>
      <trkpt lat="47.85701" lon="-3.88719">
        <ele>-0.82</ele>
        <time>2018-04-06T09:05:57Z</time>
      </trkpt>
      <trkpt lat="47.85715" lon="-3.88726">
        <ele>-4.67</ele>
        <time>2018-04-06T09:06:14Z</time>
      </trkpt>
      <trkpt lat="47.85734" lon="-3.88713">
        <ele>-6.11</ele>
        <time>2018-04-06T09:06:31Z</time>
      </trkpt>
      <trkpt lat="47.85756" lon="-3.88694">
        <ele>-9.48</ele>
        <time>2018-04-06T09:06:52Z</time>
      </trkpt>
      <trkpt lat="47.85751" lon="-3.88664">
        <ele>-12.36</ele>
        <time>2018-04-06T09:07:16Z</time>
      </trkpt>
      <trkpt lat="47.85734" lon="-3.88636">
        <ele>-11.4</ele>
        <time>2018-04-06T09:07:34Z</time>
      </trkpt>
      <trkpt lat="47.85729" lon="-3.88627">
        <ele>-9</ele>
        <time>2018-04-06T09:07:41Z</time>
      </trkpt>
      <trkpt lat="47.8572" lon="-3.88612">
        <ele>-9</ele>
        <time>2018-04-06T09:07:58Z</time>
      </trkpt>
      <trkpt lat="47.85718" lon="-3.88597">
        <ele>-5.15</ele>
        <time>2018-04-06T09:08:15Z</time>
      </trkpt>
      <trkpt lat="47.85715" lon="-3.88582">
        <ele>-2.27</ele>
        <time>2018-04-06T09:08:29Z</time>
      </trkpt>
      <trkpt lat="47.85714" lon="-3.88581">
        <ele>-2.27</ele>
        <time>2018-04-06T09:08:31Z</time>
      </trkpt>
      <trkpt lat="47.85704" lon="-3.88579">
        <ele>-1.79</ele>
        <time>2018-04-06T09:08:40Z</time>
      </trkpt>
      <trkpt lat="47.85685" lon="-3.88581">
        <ele>-3.23</ele>
        <time>2018-04-06T09:09:00Z</time>
      </trkpt>
      <trkpt lat="47.85673" lon="-3.8857">
        <ele>-2.75</ele>
        <time>2018-04-06T09:09:16Z</time>
      </trkpt>
      <trkpt lat="47.8566" lon="-3.88553">
        <ele>-3.23</ele>
        <time>2018-04-06T09:09:36Z</time>
      </trkpt>
      <trkpt lat="47.8564" lon="-3.88561">
        <ele>-1.3</ele>
        <time>2018-04-06T09:09:52Z</time>
      </trkpt>
      <trkpt lat="47.85627" lon="-3.8858">
        <ele>-1.3</ele>
        <time>2018-04-06T09:10:10Z</time>
      </trkpt>
      <trkpt lat="47.85615" lon="-3.886">
        <ele>-4.19</ele>
        <time>2018-04-06T09:10:29Z</time>
      </trkpt>
      <trkpt lat="47.85614" lon="-3.88622">
        <ele>-4.67</ele>
        <time>2018-04-06T09:10:41Z</time>
      </trkpt>
      <trkpt lat="47.85602" lon="-3.88646">
        <ele>-4.19</ele>
        <time>2018-04-06T09:10:59Z</time>
      </trkpt>
      <trkpt lat="47.85583" lon="-3.88643">
        <ele>-1.79</ele>
        <time>2018-04-06T09:11:17Z</time>
      </trkpt>
      <trkpt lat="47.85564" lon="-3.88635">
        <ele>-0.34</ele>
        <time>2018-04-06T09:11:35Z</time>
      </trkpt>
      <trkpt lat="47.85543" lon="-3.88655">
        <ele>-0.34</ele>
        <time>2018-04-06T09:11:55Z</time>
      </trkpt>
      <trkpt lat="47.85536" lon="-3.88663">
        <ele>-0.82</ele>
        <time>2018-04-06T09:12:11Z</time>
      </trkpt>
      <trkpt lat="47.85513" lon="-3.88662">
        <ele>-1.79</ele>
        <time>2018-04-06T09:12:31Z</time>
      </trkpt>
      <trkpt lat="47.85509" lon="-3.88664">
        <ele>-2.27</ele>
        <time>2018-04-06T09:12:39Z</time>
      </trkpt>
      <trkpt lat="47.855" lon="-3.88688">
        <ele>-4.19</ele>
        <time>2018-04-06T09:12:57Z</time>
      </trkpt>
      <trkpt lat="47.85501" lon="-3.88712">
        <ele>-3.71</ele>
        <time>2018-04-06T09:13:14Z</time>
      </trkpt>
      <trkpt lat="47.85503" lon="-3.88725">
        <ele>-2.75</ele>
        <time>2018-04-06T09:13:22Z</time>
      </trkpt>
      <trkpt lat="47.85502" lon="-3.88751">
        <ele>-3.23</ele>
        <time>2018-04-06T09:13:38Z</time>
      </trkpt>
      <trkpt lat="47.85489" lon="-3.88775">
        <ele>-2.75</ele>
        <time>2018-04-06T09:13:57Z</time>
      </trkpt>
      <trkpt lat="47.85476" lon="-3.88773">
        <ele>-0.34</ele>
        <time>2018-04-06T09:14:11Z</time>
      </trkpt>
      <trkpt lat="47.85467" lon="-3.88791">
        <ele>2.54</ele>
        <time>2018-04-06T09:14:25Z</time>
      </trkpt>
      <trkpt lat="47.8546" lon="-3.88803">
        <ele>3.02</ele>
        <time>2018-04-06T09:14:36Z</time>
      </trkpt>
      <trkpt lat="47.85457" lon="-3.88801">
        <ele>3.02</ele>
        <time>2018-04-06T09:14:39Z</time>
      </trkpt>
      <trkpt lat="47.85441" lon="-3.88783">
        <ele>0.62</ele>
        <time>2018-04-06T09:14:57Z</time>
      </trkpt>
      <trkpt lat="47.8544" lon="-3.88782">
        <ele>0.62</ele>
        <time>2018-04-06T09:14:58Z</time>
      </trkpt>
      <trkpt lat="47.85416" lon="-3.8877">
        <ele>-1.3</ele>
        <time>2018-04-06T09:15:19Z</time>
      </trkpt>
      <trkpt lat="47.85397" lon="-3.88763">
        <ele>-2.27</ele>
        <time>2018-04-06T09:15:37Z</time>
      </trkpt>
      <trkpt lat="47.85381" lon="-3.88749">
        <ele>-2.27</ele>
        <time>2018-04-06T09:15:56Z</time>
      </trkpt>
      <trkpt lat="47.85367" lon="-3.88749">
        <ele>-0.34</ele>
        <time>2018-04-06T09:16:14Z</time>
      </trkpt>
      <trkpt lat="47.85353" lon="-3.88763">
        <ele>0.14</ele>
        <time>2018-04-06T09:16:35Z</time>
      </trkpt>
      <trkpt lat="47.85338" lon="-3.88765">
        <ele>-1.3</ele>
        <time>2018-04-06T09:16:54Z</time>
      </trkpt>
      <trkpt lat="47.85321" lon="-3.88766">
        <ele>0.14</ele>
        <time>2018-04-06T09:17:10Z</time>
      </trkpt>
      <trkpt lat="47.85306" lon="-3.88769">
        <ele>0.14</ele>
        <time>2018-04-06T09:17:24Z</time>
      </trkpt>
      <trkpt lat="47.8529" lon="-3.88768">
        <ele>1.1</ele>
        <time>2018-04-06T09:17:41Z</time>
      </trkpt>
      <trkpt lat="47.85276" lon="-3.88774">
        <ele>2.54</ele>
        <time>2018-04-06T09:17:54Z</time>
      </trkpt>
      <trkpt lat="47.85261" lon="-3.8877">
        <ele>2.54</ele>
        <time>2018-04-06T09:18:09Z</time>
      </trkpt>
      <trkpt lat="47.85255" lon="-3.88773">
        <ele>2.06</ele>
        <time>2018-04-06T09:18:19Z</time>
      </trkpt>
      <trkpt lat="47.85244" lon="-3.88781">
        <ele>3.98</ele>
        <time>2018-04-06T09:18:29Z</time>
      </trkpt>
      <trkpt lat="47.85236" lon="-3.88818">
        <ele>5.91</ele>
        <time>2018-04-06T09:19:11Z</time>
      </trkpt>
      <trkpt lat="47.8523" lon="-3.88845">
        <ele>5.91</ele>
        <time>2018-04-06T09:19:29Z</time>
      </trkpt>
      <trkpt lat="47.85221" lon="-3.88871">
        <ele>2.06</ele>
        <time>2018-04-06T09:19:47Z</time>
      </trkpt>
      <trkpt lat="47.8521" lon="-3.889">
        <ele>-3.23</ele>
        <time>2018-04-06T09:20:10Z</time>
      </trkpt>
      <trkpt lat="47.85197" lon="-3.8893">
        <ele>-10.44</ele>
        <time>2018-04-06T09:20:31Z</time>
      </trkpt>
      <trkpt lat="47.85185" lon="-3.88955">
        <ele>-3.23</ele>
        <time>2018-04-06T09:20:46Z</time>
      </trkpt>
      <trkpt lat="47.85186" lon="-3.88975">
        <ele>1.58</ele>
        <time>2018-04-06T09:21:00Z</time>
      </trkpt>
      <trkpt lat="47.85194" lon="-3.88989">
        <ele>3.98</ele>
        <time>2018-04-06T09:21:15Z</time>
      </trkpt>
      <trkpt lat="47.85209" lon="-3.89011">
        <ele>3.98</ele>
        <time>2018-04-06T09:21:34Z</time>
      </trkpt>
      <trkpt lat="47.85223" lon="-3.89032">
        <ele>4.46</ele>
        <time>2018-04-06T09:21:50Z</time>
      </trkpt>
      <trkpt lat="47.85234" lon="-3.89052">
        <ele>-0.34</ele>
        <time>2018-04-06T09:22:06Z</time>
      </trkpt>
      <trkpt lat="47.85245" lon="-3.89059">
        <ele>-6.11</ele>
        <time>2018-04-06T09:22:23Z</time>
      </trkpt>
      <trkpt lat="47.85259" lon="-3.89067">
        <ele>-6.11</ele>
        <time>2018-04-06T09:22:38Z</time>
      </trkpt>
      <trkpt lat="47.85277" lon="-3.89085">
        <ele>-1.3</ele>
        <time>2018-04-06T09:22:54Z</time>
      </trkpt>
      <trkpt lat="47.85295" lon="-3.89103">
        <ele>1.58</ele>
        <time>2018-04-06T09:23:11Z</time>
      </trkpt>
      <trkpt lat="47.85311" lon="-3.8911">
        <ele>0.62</ele>
        <time>2018-04-06T09:23:28Z</time>
      </trkpt>
      <trkpt lat="47.85328" lon="-3.89129">
        <ele>1.1</ele>
        <time>2018-04-06T09:23:46Z</time>
      </trkpt>
      <trkpt lat="47.85329" lon="-3.89137">
        <ele>0.62</ele>
        <time>2018-04-06T09:23:51Z</time>
      </trkpt>
      <trkpt lat="47.85329" lon="-3.89142">
        <ele>0.62</ele>
        <time>2018-04-06T09:23:54Z</time>
      </trkpt>
      <trkpt lat="47.85329" lon="-3.89146">
        <ele>0.62</ele>
        <time>2018-04-06T09:23:57Z</time>
      </trkpt>
      <trkpt lat="47.85321" lon="-3.89154">
        <ele>1.1</ele>
        <time>2018-04-06T09:24:10Z</time>
      </trkpt>
      <trkpt lat="47.85314" lon="-3.89156">
        <ele>1.1</ele>
        <time>2018-04-06T09:24:16Z</time>
      </trkpt>
      <trkpt lat="47.8531" lon="-3.89163">
        <ele>0.62</ele>
        <time>2018-04-06T09:24:23Z</time>
      </trkpt>
      <trkpt lat="47.8531" lon="-3.89166">
        <ele>1.1</ele>
        <time>2018-04-06T09:24:25Z</time>
      </trkpt>
      <trkpt lat="47.853" lon="-3.89183">
        <ele>0.62</ele>
        <time>2018-04-06T09:24:40Z</time>
      </trkpt>
      <trkpt lat="47.85299" lon="-3.89184">
        <ele>0.62</ele>
        <time>2018-04-06T09:24:41Z</time>
      </trkpt>
      <trkpt lat="47.85289" lon="-3.89192">
        <ele>0.62</ele>
        <time>2018-04-06T09:24:51Z</time>
      </trkpt>
      <trkpt lat="47.85282" lon="-3.892">
        <ele>0.62</ele>
        <time>2018-04-06T09:24:58Z</time>
      </trkpt>
      <trkpt lat="47.85281" lon="-3.89203">
        <ele>0.62</ele>
        <time>2018-04-06T09:25:00Z</time>
      </trkpt>
      <trkpt lat="47.85277" lon="-3.89205">
        <ele>0.62</ele>
        <time>2018-04-06T09:25:04Z</time>
      </trkpt>
      <trkpt lat="47.85268" lon="-3.8922">
        <ele>1.1</ele>
        <time>2018-04-06T09:25:17Z</time>
      </trkpt>
      <trkpt lat="47.85262" lon="-3.89222">
        <ele>1.1</ele>
        <time>2018-04-06T09:25:22Z</time>
      </trkpt>
      <trkpt lat="47.85255" lon="-3.89222">
        <ele>0.14</ele>
        <time>2018-04-06T09:25:29Z</time>
      </trkpt>
      <trkpt lat="47.8525" lon="-3.89213">
        <ele>0.62</ele>
        <time>2018-04-06T09:25:36Z</time>
      </trkpt>
      <trkpt lat="47.85249" lon="-3.89204">
        <ele>-0.82</ele>
        <time>2018-04-06T09:25:51Z</time>
      </trkpt>
      <trkpt lat="47.85254" lon="-3.89191">
        <ele>-3.71</ele>
        <time>2018-04-06T09:26:12Z</time>
      </trkpt>
      <trkpt lat="47.85245" lon="-3.89169">
        <ele>-6.59</ele>
        <time>2018-04-06T09:26:28Z</time>
      </trkpt>
      <trkpt lat="47.85247" lon="-3.8917">
        <ele>-1.79</ele>
        <time>2018-04-06T09:26:42Z</time>
      </trkpt>
      <trkpt lat="47.85237" lon="-3.89173">
        <ele>1.1</ele>
        <time>2018-04-06T09:26:52Z</time>
      </trkpt>
      <trkpt lat="47.85223" lon="-3.89172">
        <ele>3.02</ele>
        <time>2018-04-06T09:27:03Z</time>
      </trkpt>
      <trkpt lat="47.85212" lon="-3.89159">
        <ele>1.1</ele>
        <time>2018-04-06T09:27:19Z</time>
      </trkpt>
      <trkpt lat="47.85215" lon="-3.89158">
        <ele>4.94</ele>
        <time>2018-04-06T09:27:35Z</time>
      </trkpt>
      <trkpt lat="47.85207" lon="-3.89143">
        <ele>3.5</ele>
        <time>2018-04-06T09:27:50Z</time>
      </trkpt>
      <trkpt lat="47.85196" lon="-3.8914">
        <ele>3.5</ele>
        <time>2018-04-06T09:28:02Z</time>
      </trkpt>
      <trkpt lat="47.85181" lon="-3.89157">
        <ele>0.62</ele>
        <time>2018-04-06T09:28:22Z</time>
      </trkpt>
      <trkpt lat="47.85172" lon="-3.89184">
        <ele>0.14</ele>
        <time>2018-04-06T09:28:40Z</time>
      </trkpt>
      <trkpt lat="47.85169" lon="-3.89191">
        <ele>0.14</ele>
        <time>2018-04-06T09:28:45Z</time>
      </trkpt>
      <trkpt lat="47.8516" lon="-3.8921">
        <ele>1.1</ele>
        <time>2018-04-06T09:29:06Z</time>
      </trkpt>
      <trkpt lat="47.85153" lon="-3.8924">
        <ele>2.06</ele>
        <time>2018-04-06T09:29:23Z</time>
      </trkpt>
      <trkpt lat="47.85149" lon="-3.89253">
        <ele>1.1</ele>
        <time>2018-04-06T09:29:39Z</time>
      </trkpt>
      <trkpt lat="47.85142" lon="-3.89266">
        <ele>1.58</ele>
        <time>2018-04-06T09:29:57Z</time>
      </trkpt>
      <trkpt lat="47.85136" lon="-3.89278">
        <ele>1.58</ele>
        <time>2018-04-06T09:30:12Z</time>
      </trkpt>
      <trkpt lat="47.85118" lon="-3.89297">
        <ele>2.54</ele>
        <time>2018-04-06T09:30:33Z</time>
      </trkpt>
      <trkpt lat="47.85111" lon="-3.8932">
        <ele>2.54</ele>
        <time>2018-04-06T09:30:50Z</time>
      </trkpt>
      <trkpt lat="47.85108" lon="-3.89326">
        <ele>2.54</ele>
        <time>2018-04-06T09:30:54Z</time>
      </trkpt>
      <trkpt lat="47.85096" lon="-3.89333">
        <ele>2.54</ele>
        <time>2018-04-06T09:31:07Z</time>
      </trkpt>
      <trkpt lat="47.85091" lon="-3.89339">
        <ele>3.02</ele>
        <time>2018-04-06T09:31:13Z</time>
      </trkpt>
      <trkpt lat="47.85075" lon="-3.89361">
        <ele>3.98</ele>
        <time>2018-04-06T09:31:12Z</time>
      </trkpt>
      <trkpt lat="47.85065" lon="-3.8937">
        <ele>4.46</ele>
        <time>2018-04-06T09:31:23Z</time>
      </trkpt>
      <trkpt lat="47.85055" lon="-3.8938">
        <ele>4.94</ele>
        <time>2018-04-06T09:31:35Z</time>
      </trkpt>
      <trkpt lat="47.85052" lon="-3.89378">
        <ele>4.46</ele>
        <time>2018-04-06T09:31:51Z</time>
      </trkpt>
      <trkpt lat="47.85042" lon="-3.89385">
        <ele>5.91</ele>
        <time>2018-04-06T09:32:07Z</time>
      </trkpt>
      <trkpt lat="47.85035" lon="-3.89405">
        <ele>3.98</ele>
        <time>2018-04-06T09:32:23Z</time>
      </trkpt>
      <trkpt lat="47.85035" lon="-3.89406">
        <ele>3.5</ele>
        <time>2018-04-06T09:32:24Z</time>
      </trkpt>
      <trkpt lat="47.85029" lon="-3.89415">
        <ele>3.5</ele>
        <time>2018-04-06T09:32:31Z</time>
      </trkpt>
      <trkpt lat="47.85017" lon="-3.89416">
        <ele>3.98</ele>
        <time>2018-04-06T09:32:50Z</time>
      </trkpt>
      <trkpt lat="47.85008" lon="-3.89397">
        <ele>5.91</ele>
        <time>2018-04-06T09:33:07Z</time>
      </trkpt>
      <trkpt lat="47.85" lon="-3.89382">
        <ele>6.39</ele>
        <time>2018-04-06T09:33:21Z</time>
      </trkpt>
      <trkpt lat="47.8499" lon="-3.89406">
        <ele>3.02</ele>
        <time>2018-04-06T09:33:39Z</time>
      </trkpt>
      <trkpt lat="47.84974" lon="-3.89436">
        <ele>2.06</ele>
        <time>2018-04-06T09:34:00Z</time>
      </trkpt>
      <trkpt lat="47.84965" lon="-3.89458">
        <ele>1.58</ele>
        <time>2018-04-06T09:34:14Z</time>
      </trkpt>
      <trkpt lat="47.84952" lon="-3.89465">
        <ele>0.62</ele>
        <time>2018-04-06T09:34:31Z</time>
      </trkpt>
      <trkpt lat="47.8495" lon="-3.89461">
        <ele>0.62</ele>
        <time>2018-04-06T09:34:34Z</time>
      </trkpt>
      <trkpt lat="47.84949" lon="-3.89445">
        <ele>0.14</ele>
        <time>2018-04-06T09:34:45Z</time>
      </trkpt>
      <trkpt lat="47.84949" lon="-3.89419">
        <ele>1.1</ele>
        <time>2018-04-06T09:35:02Z</time>
      </trkpt>
      <trkpt lat="47.84943" lon="-3.89393">
        <ele>1.1</ele>
        <time>2018-04-06T09:35:19Z</time>
      </trkpt>
      <trkpt lat="47.84941" lon="-3.89384">
        <ele>-0.34</ele>
        <time>2018-04-06T09:35:35Z</time>
      </trkpt>
      <trkpt lat="47.84943" lon="-3.89355">
        <ele>-1.3</ele>
        <time>2018-04-06T09:35:53Z</time>
      </trkpt>
      <trkpt lat="47.84936" lon="-3.89328">
        <ele>-2.27</ele>
        <time>2018-04-06T09:36:10Z</time>
      </trkpt>
      <trkpt lat="47.84931" lon="-3.89328">
        <ele>-1.79</ele>
        <time>2018-04-06T09:36:15Z</time>
      </trkpt>
      <trkpt lat="47.84923" lon="-3.89308">
        <ele>-0.82</ele>
        <time>2018-04-06T09:36:31Z</time>
      </trkpt>
      <trkpt lat="47.84919" lon="-3.89294">
        <ele>0.62</ele>
        <time>2018-04-06T09:36:45Z</time>
      </trkpt>
      <trkpt lat="47.84919" lon="-3.89294">
        <ele>0.62</ele>
        <time>2018-04-06T09:36:46Z</time>
      </trkpt>
      <trkpt lat="47.84913" lon="-3.89293">
        <ele>1.58</ele>
        <time>2018-04-06T09:37:00Z</time>
      </trkpt>
      <trkpt lat="47.84912" lon="-3.89293">
        <ele>3.02</ele>
        <time>2018-04-06T09:37:16Z</time>
      </trkpt>
      <trkpt lat="47.84913" lon="-3.89295">
        <ele>3.02</ele>
        <time>2018-04-06T09:37:29Z</time>
      </trkpt>
      <trkpt lat="47.84909" lon="-3.89296">
        <ele>3.98</ele>
        <time>2018-04-06T09:37:36Z</time>
      </trkpt>
      <trkpt lat="47.84903" lon="-3.89279">
        <ele>4.46</ele>
        <time>2018-04-06T09:37:50Z</time>
      </trkpt>
      <trkpt lat="47.84907" lon="-3.89256">
        <ele>-0.34</ele>
        <time>2018-04-06T09:38:05Z</time>
      </trkpt>
      <trkpt lat="47.84908" lon="-3.89249">
        <ele>-0.82</ele>
        <time>2018-04-06T09:38:09Z</time>
      </trkpt>
      <trkpt lat="47.84914" lon="-3.89221">
        <ele>-1.79</ele>
        <time>2018-04-06T09:38:25Z</time>
      </trkpt>
      <trkpt lat="47.84925" lon="-3.89203">
        <ele>-1.79</ele>
        <time>2018-04-06T09:38:40Z</time>
      </trkpt>
      <trkpt lat="47.84937" lon="-3.89185">
        <ele>-3.23</ele>
        <time>2018-04-06T09:38:55Z</time>
      </trkpt>
      <trkpt lat="47.8494" lon="-3.89166">
        <ele>-5.63</ele>
        <time>2018-04-06T09:39:12Z</time>
      </trkpt>
      <trkpt lat="47.84942" lon="-3.89154">
        <ele>-7.55</ele>
        <time>2018-04-06T09:39:20Z</time>
      </trkpt>
      <trkpt lat="47.84945" lon="-3.89134">
        <ele>-6.11</ele>
        <time>2018-04-06T09:39:34Z</time>
      </trkpt>
      <trkpt lat="47.84939" lon="-3.89124">
        <ele>-5.15</ele>
        <time>2018-04-06T09:39:41Z</time>
      </trkpt>
      <trkpt lat="47.84933" lon="-3.89105">
        <ele>-4.19</ele>
        <time>2018-04-06T09:39:52Z</time>
      </trkpt>
      <trkpt lat="47.84925" lon="-3.89078">
        <ele>-2.75</ele>
        <time>2018-04-06T09:40:08Z</time>
      </trkpt>
      <trkpt lat="47.84932" lon="-3.89057">
        <ele>-3.23</ele>
        <time>2018-04-06T09:40:23Z</time>
      </trkpt>
      <trkpt lat="47.84942" lon="-3.89038">
        <ele>-5.63</ele>
        <time>2018-04-06T09:40:39Z</time>
      </trkpt>
      <trkpt lat="47.84942" lon="-3.89034">
        <ele>-2.75</ele>
        <time>2018-04-06T09:40:55Z</time>
      </trkpt>
      <trkpt lat="47.84943" lon="-3.89031">
        <ele>-3.71</ele>
        <time>2018-04-06T09:41:21Z</time>
      </trkpt>
      <trkpt lat="47.8495" lon="-3.89006">
        <ele>-2.27</ele>
        <time>2018-04-06T09:41:37Z</time>
      </trkpt>
      <trkpt lat="47.84952" lon="-3.89004">
        <ele>-2.75</ele>
        <time>2018-04-06T09:41:39Z</time>
      </trkpt>
      <trkpt lat="47.84956" lon="-3.89">
        <ele>-3.71</ele>
        <time>2018-04-06T09:41:44Z</time>
      </trkpt>
      <trkpt lat="47.84961" lon="-3.88997">
        <ele>-4.67</ele>
        <time>2018-04-06T09:41:49Z</time>
      </trkpt>
      <trkpt lat="47.84965" lon="-3.88996">
        <ele>-4.67</ele>
        <time>2018-04-06T09:41:53Z</time>
      </trkpt>
      <trkpt lat="47.84968" lon="-3.88994">
        <ele>-4.19</ele>
        <time>2018-04-06T09:41:55Z</time>
      </trkpt>
      <trkpt lat="47.84976" lon="-3.8897">
        <ele>-4.67</ele>
        <time>2018-04-06T09:42:11Z</time>
      </trkpt>
      <trkpt lat="47.84977" lon="-3.88961">
        <ele>-4.67</ele>
        <time>2018-04-06T09:42:16Z</time>
      </trkpt>
      <trkpt lat="47.84982" lon="-3.88932">
        <ele>-4.67</ele>
        <time>2018-04-06T09:42:33Z</time>
      </trkpt>
      <trkpt lat="47.84983" lon="-3.88914">
        <ele>-3.23</ele>
        <time>2018-04-06T09:42:46Z</time>
      </trkpt>
      <trkpt lat="47.84982" lon="-3.88884">
        <ele>-1.79</ele>
        <time>2018-04-06T09:43:01Z</time>
      </trkpt>
      <trkpt lat="47.84983" lon="-3.88882">
        <ele>-1.79</ele>
        <time>2018-04-06T09:43:02Z</time>
      </trkpt>
      <trkpt lat="47.84988" lon="-3.88852">
        <ele>-0.82</ele>
        <time>2018-04-06T09:43:18Z</time>
      </trkpt>
      <trkpt lat="47.84991" lon="-3.88836">
        <ele>-1.79</ele>
        <time>2018-04-06T09:43:27Z</time>
      </trkpt>
      <trkpt lat="47.84994" lon="-3.88815">
        <ele>-3.23</ele>
        <time>2018-04-06T09:43:41Z</time>
      </trkpt>
      <trkpt lat="47.84993" lon="-3.88803">
        <ele>-2.27</ele>
        <time>2018-04-06T09:43:47Z</time>
      </trkpt>
      <trkpt lat="47.84989" lon="-3.88782">
        <ele>0.62</ele>
        <time>2018-04-06T09:43:58Z</time>
      </trkpt>
      <trkpt lat="47.84975" lon="-3.88748">
        <ele>1.58</ele>
        <time>2018-04-06T09:44:19Z</time>
      </trkpt>
      <trkpt lat="47.84974" lon="-3.88715">
        <ele>1.1</ele>
        <time>2018-04-06T09:44:37Z</time>
      </trkpt>
      <trkpt lat="47.84964" lon="-3.88678">
        <ele>-0.82</ele>
        <time>2018-04-06T09:45:00Z</time>
      </trkpt>
      <trkpt lat="47.84958" lon="-3.88673">
        <ele>-1.79</ele>
        <time>2018-04-06T09:45:06Z</time>
      </trkpt>
      <trkpt lat="47.84933" lon="-3.88655">
        <ele>-3.71</ele>
        <time>2018-04-06T09:45:30Z</time>
      </trkpt>
      <trkpt lat="47.84918" lon="-3.88641">
        <ele>-1.79</ele>
        <time>2018-04-06T09:45:46Z</time>
      </trkpt>
      <trkpt lat="47.84892" lon="-3.88623">
        <ele>-1.3</ele>
        <time>2018-04-06T09:46:09Z</time>
      </trkpt>
      <trkpt lat="47.84881" lon="-3.88621">
        <ele>-1.79</ele>
        <time>2018-04-06T09:46:19Z</time>
      </trkpt>
      <trkpt lat="47.84861" lon="-3.88656">
        <ele>-3.23</ele>
        <time>2018-04-06T09:46:42Z</time>
      </trkpt>
      <trkpt lat="47.84846" lon="-3.88681">
        <ele>-2.27</ele>
        <time>2018-04-06T09:47:02Z</time>
      </trkpt>
      <trkpt lat="47.84851" lon="-3.88718">
        <ele>-5.15</ele>
        <time>2018-04-06T09:47:24Z</time>
      </trkpt>
      <trkpt lat="47.84856" lon="-3.88742">
        <ele>-6.59</ele>
        <time>2018-04-06T09:47:39Z</time>
      </trkpt>
      <trkpt lat="47.84853" lon="-3.88777">
        <ele>-4.67</ele>
        <time>2018-04-06T09:47:58Z</time>
      </trkpt>
      <trkpt lat="47.84858" lon="-3.88804">
        <ele>-5.63</ele>
        <time>2018-04-06T09:48:15Z</time>
      </trkpt>
      <trkpt lat="47.84857" lon="-3.88839">
        <ele>-8.03</ele>
        <time>2018-04-06T09:48:32Z</time>
      </trkpt>
      <trkpt lat="47.84855" lon="-3.88864">
        <ele>-12.36</ele>
        <time>2018-04-06T09:48:48Z</time>
      </trkpt>
      <trkpt lat="47.84855" lon="-3.88878">
        <ele>-11.4</ele>
        <time>2018-04-06T09:48:58Z</time>
      </trkpt>
      <trkpt lat="47.84836" lon="-3.8888">
        <ele>-7.55</ele>
        <time>2018-04-06T09:49:14Z</time>
      </trkpt>
      <trkpt lat="47.84833" lon="-3.88882">
        <ele>-8.51</ele>
        <time>2018-04-06T09:49:18Z</time>
      </trkpt>
      <trkpt lat="47.84819" lon="-3.88887">
        <ele>-10.92</ele>
        <time>2018-04-06T09:49:34Z</time>
      </trkpt>
      <trkpt lat="47.84815" lon="-3.88891">
        <ele>-12.36</ele>
        <time>2018-04-06T09:49:41Z</time>
      </trkpt>
      <trkpt lat="47.84802" lon="-3.8891">
        <ele>-12.36</ele>
        <time>2018-04-06T09:49:57Z</time>
      </trkpt>
      <trkpt lat="47.84786" lon="-3.88934">
        <ele>-10.44</ele>
        <time>2018-04-06T09:50:13Z</time>
      </trkpt>
      <trkpt lat="47.8478" lon="-3.88947">
        <ele>-8.51</ele>
        <time>2018-04-06T09:50:21Z</time>
      </trkpt>
      <trkpt lat="47.84771" lon="-3.88972">
        <ele>-8.03</ele>
        <time>2018-04-06T09:50:37Z</time>
      </trkpt>
      <trkpt lat="47.84767" lon="-3.89001">
        <ele>-8.03</ele>
        <time>2018-04-06T09:50:54Z</time>
      </trkpt>
      <trkpt lat="47.84767" lon="-3.89037">
        <ele>-5.63</ele>
        <time>2018-04-06T09:51:12Z</time>
      </trkpt>
      <trkpt lat="47.8478" lon="-3.89057">
        <ele>-6.11</ele>
        <time>2018-04-06T09:51:30Z</time>
      </trkpt>
      <trkpt lat="47.84789" lon="-3.89083">
        <ele>-12.36</ele>
        <time>2018-04-06T09:51:46Z</time>
      </trkpt>
      <trkpt lat="47.84785" lon="-3.89104">
        <ele>-15.72</ele>
        <time>2018-04-06T09:52:00Z</time>
      </trkpt>
      <trkpt lat="47.84769" lon="-3.89106">
        <ele>-19.09</ele>
        <time>2018-04-06T09:52:18Z</time>
      </trkpt>
      <trkpt lat="47.84752" lon="-3.8909">
        <ele>-14.76</ele>
        <time>2018-04-06T09:52:35Z</time>
      </trkpt>
      <trkpt lat="47.84736" lon="-3.89076">
        <ele>-15.72</ele>
        <time>2018-04-06T09:52:52Z</time>
      </trkpt>
      <trkpt lat="47.84722" lon="-3.89066">
        <ele>-15.72</ele>
        <time>2018-04-06T09:53:08Z</time>
      </trkpt>
      <trkpt lat="47.84713" lon="-3.89064">
        <ele>-14.28</ele>
        <time>2018-04-06T09:53:17Z</time>
      </trkpt>
      <trkpt lat="47.84712" lon="-3.89062">
        <ele>-14.28</ele>
        <time>2018-04-06T09:53:19Z</time>
      </trkpt>
      <trkpt lat="47.84687" lon="-3.89053">
        <ele>-15.24</ele>
        <time>2018-04-06T09:53:40Z</time>
      </trkpt>
      <trkpt lat="47.8468" lon="-3.89051">
        <ele>-13.32</ele>
        <time>2018-04-06T09:53:44Z</time>
      </trkpt>
      <trkpt lat="47.84671" lon="-3.89049">
        <ele>-10.44</ele>
        <time>2018-04-06T09:53:51Z</time>
      </trkpt>
      <trkpt lat="47.84667" lon="-3.89047">
        <ele>-8.03</ele>
        <time>2018-04-06T09:53:54Z</time>
      </trkpt>
      <trkpt lat="47.84655" lon="-3.89048">
        <ele>-4.19</ele>
        <time>2018-04-06T09:54:03Z</time>
      </trkpt>
      <trkpt lat="47.84647" lon="-3.89055">
        <ele>-3.23</ele>
        <time>2018-04-06T09:54:12Z</time>
      </trkpt>
      <trkpt lat="47.84635" lon="-3.89061">
        <ele>-3.71</ele>
        <time>2018-04-06T09:54:30Z</time>
      </trkpt>
      <trkpt lat="47.84635" lon="-3.89061">
        <ele>-3.71</ele>
        <time>2018-04-06T09:54:34Z</time>
      </trkpt>
      <trkpt lat="47.84634" lon="-3.89063">
        <ele>-3.71</ele>
        <time>2018-04-06T09:54:36Z</time>
      </trkpt>
      <trkpt lat="47.84624" lon="-3.89069">
        <ele>-2.27</ele>
        <time>2018-04-06T09:54:45Z</time>
      </trkpt>
      <trkpt lat="47.84618" lon="-3.89072">
        <ele>-2.27</ele>
        <time>2018-04-06T09:54:51Z</time>
      </trkpt>
      <trkpt lat="47.84614" lon="-3.89075">
        <ele>-1.79</ele>
        <time>2018-04-06T09:54:55Z</time>
      </trkpt>
      <trkpt lat="47.84598" lon="-3.89087">
        <ele>-0.34</ele>
        <time>2018-04-06T09:55:10Z</time>
      </trkpt>
      <trkpt lat="47.8459" lon="-3.89092">
        <ele>0.14</ele>
        <time>2018-04-06T09:55:17Z</time>
      </trkpt>
      <trkpt lat="47.84586" lon="-3.89096">
        <ele>0.14</ele>
        <time>2018-04-06T09:55:21Z</time>
      </trkpt>
      <trkpt lat="47.84575" lon="-3.89103">
        <ele>0.62</ele>
        <time>2018-04-06T09:55:31Z</time>
      </trkpt>
      <trkpt lat="47.84557" lon="-3.89108">
        <ele>4.46</ele>
        <time>2018-04-06T09:55:46Z</time>
      </trkpt>
      <trkpt lat="47.84553" lon="-3.89115">
        <ele>4.94</ele>
        <time>2018-04-06T09:55:50Z</time>
      </trkpt>
      <trkpt lat="47.84547" lon="-3.8913">
        <ele>5.91</ele>
        <time>2018-04-06T09:56:07Z</time>
      </trkpt>
      <trkpt lat="47.8455" lon="-3.89131">
        <ele>4.94</ele>
        <time>2018-04-06T09:56:31Z</time>
      </trkpt>
      <trkpt lat="47.84548" lon="-3.89127">
        <ele>4.46</ele>
        <time>2018-04-06T09:56:55Z</time>
      </trkpt>
      <trkpt lat="47.84549" lon="-3.89122">
        <ele>4.46</ele>
        <time>2018-04-06T09:57:27Z</time>
      </trkpt>
      <trkpt lat="47.84551" lon="-3.89124">
        <ele>5.42</ele>
        <time>2018-04-06T09:58:02Z</time>
      </trkpt>
      <trkpt lat="47.8454" lon="-3.89113">
        <ele>3.5</ele>
        <time>2018-04-06T09:58:24Z</time>
      </trkpt>
      <trkpt lat="47.84534" lon="-3.89118">
        <ele>3.5</ele>
        <time>2018-04-06T09:58:29Z</time>
      </trkpt>
      <trkpt lat="47.84505" lon="-3.89122">
        <ele>3.98</ele>
        <time>2018-04-06T09:58:53Z</time>
      </trkpt>
      <trkpt lat="47.84494" lon="-3.89101">
        <ele>2.06</ele>
        <time>2018-04-06T09:59:09Z</time>
      </trkpt>
      <trkpt lat="47.84487" lon="-3.89072">
        <ele>1.1</ele>
        <time>2018-04-06T09:59:26Z</time>
      </trkpt>
      <trkpt lat="47.84484" lon="-3.89045">
        <ele>-0.82</ele>
        <time>2018-04-06T09:59:41Z</time>
      </trkpt>
      <trkpt lat="47.84473" lon="-3.89021">
        <ele>-3.23</ele>
        <time>2018-04-06T09:59:58Z</time>
      </trkpt>
      <trkpt lat="47.84457" lon="-3.89003">
        <ele>-4.19</ele>
        <time>2018-04-06T10:00:17Z</time>
      </trkpt>
      <trkpt lat="47.84444" lon="-3.88997">
        <ele>-0.82</ele>
        <time>2018-04-06T10:00:28Z</time>
      </trkpt>
      <trkpt lat="47.84419" lon="-3.88983">
        <ele>3.5</ele>
        <time>2018-04-06T10:00:45Z</time>
      </trkpt>
      <trkpt lat="47.84408" lon="-3.88961">
        <ele>1.58</ele>
        <time>2018-04-06T10:01:01Z</time>
      </trkpt>
      <trkpt lat="47.84402" lon="-3.88968">
        <ele>-2.75</ele>
        <time>2018-04-06T10:01:17Z</time>
      </trkpt>
      <trkpt lat="47.84404" lon="-3.88988">
        <ele>-6.11</ele>
        <time>2018-04-06T10:01:30Z</time>
      </trkpt>
      <trkpt lat="47.84406" lon="-3.89016">
        <ele>-8.51</ele>
        <time>2018-04-06T10:01:46Z</time>
      </trkpt>
      <trkpt lat="47.84418" lon="-3.89027">
        <ele>-12.36</ele>
        <time>2018-04-06T10:02:03Z</time>
      </trkpt>
      <trkpt lat="47.84428" lon="-3.89036">
        <ele>-13.32</ele>
        <time>2018-04-06T10:02:17Z</time>
      </trkpt>
      <trkpt lat="47.84432" lon="-3.89037">
        <ele>-12.36</ele>
        <time>2018-04-06T10:02:36Z</time>
      </trkpt>
      <trkpt lat="47.84455" lon="-3.8905">
        <ele>-10.92</ele>
        <time>2018-04-06T10:02:56Z</time>
      </trkpt>
      <trkpt lat="47.84461" lon="-3.89067">
        <ele>-15.72</ele>
        <time>2018-04-06T10:03:14Z</time>
      </trkpt>
      <trkpt lat="47.84459" lon="-3.89079">
        <ele>-15.72</ele>
        <time>2018-04-06T10:03:28Z</time>
      </trkpt>
      <trkpt lat="47.84443" lon="-3.89103">
        <ele>-11.4</ele>
        <time>2018-04-06T10:03:44Z</time>
      </trkpt>
      <trkpt lat="47.84442" lon="-3.89105">
        <ele>-11.4</ele>
        <time>2018-04-06T10:03:45Z</time>
      </trkpt>
      <trkpt lat="47.84431" lon="-3.89126">
        <ele>-8.03</ele>
        <time>2018-04-06T10:04:02Z</time>
      </trkpt>
      <trkpt lat="47.84431" lon="-3.89149">
        <ele>-5.15</ele>
        <time>2018-04-06T10:04:17Z</time>
      </trkpt>
      <trkpt lat="47.84433" lon="-3.8915">
        <ele>-5.15</ele>
        <time>2018-04-06T10:04:19Z</time>
      </trkpt>
      <trkpt lat="47.84443" lon="-3.89159">
        <ele>-6.11</ele>
        <time>2018-04-06T10:04:33Z</time>
      </trkpt>
      <trkpt lat="47.84447" lon="-3.89163">
        <ele>-7.07</ele>
        <time>2018-04-06T10:04:40Z</time>
      </trkpt>
      <trkpt lat="47.84449" lon="-3.89185">
        <ele>-6.59</ele>
        <time>2018-04-06T10:04:56Z</time>
      </trkpt>
      <trkpt lat="47.84441" lon="-3.89199">
        <ele>-6.59</ele>
        <time>2018-04-06T10:05:11Z</time>
      </trkpt>
      <trkpt lat="47.84437" lon="-3.89202">
        <ele>-6.11</ele>
        <time>2018-04-06T10:05:15Z</time>
      </trkpt>
      <trkpt lat="47.84423" lon="-3.89207">
        <ele>-6.11</ele>
        <time>2018-04-06T10:05:30Z</time>
      </trkpt>
      <trkpt lat="47.84414" lon="-3.89194">
        <ele>-3.71</ele>
        <time>2018-04-06T10:05:44Z</time>
      </trkpt>
      <trkpt lat="47.84398" lon="-3.8918">
        <ele>-0.82</ele>
        <time>2018-04-06T10:05:59Z</time>
      </trkpt>
      <trkpt lat="47.84391" lon="-3.8916">
        <ele>-1.3</ele>
        <time>2018-04-06T10:06:14Z</time>
      </trkpt>
      <trkpt lat="47.84382" lon="-3.89147">
        <ele>-2.75</ele>
        <time>2018-04-06T10:06:29Z</time>
      </trkpt>
      <trkpt lat="47.84373" lon="-3.89122">
        <ele>-3.71</ele>
        <time>2018-04-06T10:06:42Z</time>
      </trkpt>
      <trkpt lat="47.84359" lon="-3.89116">
        <ele>-5.63</ele>
        <time>2018-04-06T10:06:56Z</time>
      </trkpt>
      <trkpt lat="47.84352" lon="-3.8911">
        <ele>-6.11</ele>
        <time>2018-04-06T10:07:06Z</time>
      </trkpt>
      <trkpt lat="47.84338" lon="-3.89114">
        <ele>-5.63</ele>
        <time>2018-04-06T10:07:21Z</time>
      </trkpt>
      <trkpt lat="47.84339" lon="-3.89139">
        <ele>-7.07</ele>
        <time>2018-04-06T10:07:37Z</time>
      </trkpt>
      <trkpt lat="47.84337" lon="-3.89167">
        <ele>-6.11</ele>
        <time>2018-04-06T10:07:55Z</time>
      </trkpt>
      <trkpt lat="47.84333" lon="-3.89184">
        <ele>-11.88</ele>
        <time>2018-04-06T10:08:16Z</time>
      </trkpt>
      <trkpt lat="47.84324" lon="-3.89192">
        <ele>-19.57</ele>
        <time>2018-04-06T10:08:46Z</time>
      </trkpt>
      <trkpt lat="47.8432" lon="-3.89193">
        <ele>-17.17</ele>
        <time>2018-04-06T10:08:47Z</time>
      </trkpt>
      <trkpt lat="47.84312" lon="-3.89203">
        <ele>-9.48</ele>
        <time>2018-04-06T10:09:00Z</time>
      </trkpt>
      <trkpt lat="47.84298" lon="-3.89228">
        <ele>-7.55</ele>
        <time>2018-04-06T10:09:18Z</time>
      </trkpt>
      <trkpt lat="47.84285" lon="-3.89259">
        <ele>-6.11</ele>
        <time>2018-04-06T10:09:34Z</time>
      </trkpt>
      <trkpt lat="47.84286" lon="-3.89281">
        <ele>-3.23</ele>
        <time>2018-04-06T10:09:42Z</time>
      </trkpt>
      <trkpt lat="47.84287" lon="-3.89293">
        <ele>-2.27</ele>
        <time>2018-04-06T10:09:48Z</time>
      </trkpt>
      <trkpt lat="47.84287" lon="-3.89312">
        <ele>0.14</ele>
        <time>2018-04-06T10:09:57Z</time>
      </trkpt>
      <trkpt lat="47.84276" lon="-3.89336">
        <ele>3.5</ele>
        <time>2018-04-06T10:10:12Z</time>
      </trkpt>
      <trkpt lat="47.84255" lon="-3.89363">
        <ele>1.58</ele>
        <time>2018-04-06T10:10:30Z</time>
      </trkpt>
      <trkpt lat="47.84244" lon="-3.89374">
        <ele>0.62</ele>
        <time>2018-04-06T10:10:39Z</time>
      </trkpt>
      <trkpt lat="47.84228" lon="-3.89381">
        <ele>-2.75</ele>
        <time>2018-04-06T10:10:55Z</time>
      </trkpt>
      <trkpt lat="47.8422" lon="-3.89389">
        <ele>-2.75</ele>
        <time>2018-04-06T10:11:07Z</time>
      </trkpt>
      <trkpt lat="47.84206" lon="-3.89382">
        <ele>-3.71</ele>
        <time>2018-04-06T10:11:22Z</time>
      </trkpt>
      <trkpt lat="47.84193" lon="-3.89376">
        <ele>-4.67</ele>
        <time>2018-04-06T10:11:34Z</time>
      </trkpt>
      <trkpt lat="47.84177" lon="-3.89364">
        <ele>-3.71</ele>
        <time>2018-04-06T10:11:51Z</time>
      </trkpt>
      <trkpt lat="47.84157" lon="-3.89358">
        <ele>-1.79</ele>
        <time>2018-04-06T10:12:09Z</time>
      </trkpt>
      <trkpt lat="47.84147" lon="-3.89362">
        <ele>-1.3</ele>
        <time>2018-04-06T10:12:17Z</time>
      </trkpt>
      <trkpt lat="47.84146" lon="-3.8936">
        <ele>-0.82</ele>
        <time>2018-04-06T10:12:19Z</time>
      </trkpt>
      <trkpt lat="47.84142" lon="-3.8935">
        <ele>1.1</ele>
        <time>2018-04-06T10:12:26Z</time>
      </trkpt>
      <trkpt lat="47.84143" lon="-3.89341">
        <ele>3.5</ele>
        <time>2018-04-06T10:12:41Z</time>
      </trkpt>
      <trkpt lat="47.84143" lon="-3.89329">
        <ele>4.46</ele>
        <time>2018-04-06T10:12:57Z</time>
      </trkpt>
      <trkpt lat="47.84131" lon="-3.89296">
        <ele>3.5</ele>
        <time>2018-04-06T10:13:18Z</time>
      </trkpt>
      <trkpt lat="47.84118" lon="-3.89267">
        <ele>4.94</ele>
        <time>2018-04-06T10:13:37Z</time>
      </trkpt>
      <trkpt lat="47.84108" lon="-3.89245">
        <ele>5.42</ele>
        <time>2018-04-06T10:13:54Z</time>
      </trkpt>
      <trkpt lat="47.84091" lon="-3.89223">
        <ele>6.87</ele>
        <time>2018-04-06T10:14:12Z</time>
      </trkpt>
      <trkpt lat="47.84083" lon="-3.89214">
        <ele>8.79</ele>
        <time>2018-04-06T10:14:22Z</time>
      </trkpt>
      <trkpt lat="47.84068" lon="-3.89198">
        <ele>8.79</ele>
        <time>2018-04-06T10:14:39Z</time>
      </trkpt>
      <trkpt lat="47.84049" lon="-3.89185">
        <ele>8.79</ele>
        <time>2018-04-06T10:14:55Z</time>
      </trkpt>
      <trkpt lat="47.84032" lon="-3.89176">
        <ele>9.75</ele>
        <time>2018-04-06T10:15:10Z</time>
      </trkpt>
      <trkpt lat="47.84013" lon="-3.89157">
        <ele>9.75</ele>
        <time>2018-04-06T10:15:29Z</time>
      </trkpt>
      <trkpt lat="47.83996" lon="-3.89138">
        <ele>8.79</ele>
        <time>2018-04-06T10:15:47Z</time>
      </trkpt>
      <trkpt lat="47.8398" lon="-3.8912">
        <ele>6.39</ele>
        <time>2018-04-06T10:16:05Z</time>
      </trkpt>
      <trkpt lat="47.83964" lon="-3.89102">
        <ele>7.35</ele>
        <time>2018-04-06T10:16:21Z</time>
      </trkpt>
      <trkpt lat="47.83962" lon="-3.89096">
        <ele>7.83</ele>
        <time>2018-04-06T10:16:25Z</time>
      </trkpt>
      <trkpt lat="47.83946" lon="-3.89078">
        <ele>9.27</ele>
        <time>2018-04-06T10:16:44Z</time>
      </trkpt>
      <trkpt lat="47.83921" lon="-3.89064">
        <ele>8.79</ele>
        <time>2018-04-06T10:17:05Z</time>
      </trkpt>
      <trkpt lat="47.83907" lon="-3.89042">
        <ele>5.91</ele>
        <time>2018-04-06T10:17:22Z</time>
      </trkpt>
      <trkpt lat="47.839" lon="-3.89043">
        <ele>4.46</ele>
        <time>2018-04-06T10:17:38Z</time>
      </trkpt>
      <trkpt lat="47.83901" lon="-3.89041">
        <ele>4.46</ele>
        <time>2018-04-06T10:17:52Z</time>
      </trkpt>
      <trkpt lat="47.839" lon="-3.8904">
        <ele>5.42</ele>
        <time>2018-04-06T10:18:04Z</time>
      </trkpt>
      <trkpt lat="47.83897" lon="-3.89039">
        <ele>6.87</ele>
        <time>2018-04-06T10:18:32Z</time>
      </trkpt>
      <trkpt lat="47.83889" lon="-3.89032">
        <ele>7.35</ele>
        <time>2018-04-06T10:19:01Z</time>
      </trkpt>
    </trkseg>
  </trk>
</gpx>